<?xml version="1.0" encoding="UTF-8"?>
<gpx xmlns="http://www.topografix.com/GPX/1/1" xmlns:xsi="http://www.w3.org/2001/XMLSchema-instance" version="1.1" xsi:schemaLocation="http://www.topografix.com/GPX/1/1 http://www.topografix.com/GPX/1/1/gpx.xsd">
  <metadata>
    <name>Challenge Wanaka 2025</name>
  </metadata>
  <trk>
    <name>Challenge Wanaka 2025</name>
    <trkseg>
      <trkpt lat="-44.69666" lon="169.131862">
        <ele>280.980627</ele>
        <time>2025-02-15T09:30:00.000Z</time>
      </trkpt>
      <trkpt lat="-44.696814" lon="169.131607">
        <ele>280.980609</ele>
        <time>2025-02-15T09:30:03.000Z</time>
      </trkpt>
      <trkpt lat="-44.697705" lon="169.129977">
        <ele>281.187071</ele>
        <time>2025-02-15T09:30:19.000Z</time>
      </trkpt>
      <trkpt lat="-44.698149" lon="169.129053">
        <ele>281.395665</ele>
        <time>2025-02-15T09:30:28.000Z</time>
      </trkpt>
      <trkpt lat="-44.6986" lon="169.127997">
        <ele>281.729517</ele>
        <time>2025-02-15T09:30:38.000Z</time>
      </trkpt>
      <trkpt lat="-44.69882" lon="169.12738">
        <ele>281.931158</ele>
        <time>2025-02-15T09:30:43.000Z</time>
      </trkpt>
      <trkpt lat="-44.698912" lon="169.127121">
        <ele>282.013637</ele>
        <time>2025-02-15T09:30:45.000Z</time>
      </trkpt>
      <trkpt lat="-44.699326" lon="169.125866">
        <ele>282.675077</ele>
        <time>2025-02-15T09:30:56.000Z</time>
      </trkpt>
      <trkpt lat="-44.699546" lon="169.124991">
        <ele>283.249457</ele>
        <time>2025-02-15T09:31:03.000Z</time>
      </trkpt>
      <trkpt lat="-44.699732" lon="169.123534">
        <ele>284.547201</ele>
        <time>2025-02-15T09:31:15.000Z</time>
      </trkpt>
      <trkpt lat="-44.69976" lon="169.123262">
        <ele>284.887184</ele>
        <time>2025-02-15T09:31:17.000Z</time>
      </trkpt>
      <trkpt lat="-44.699821" lon="169.12289">
        <ele>285.349492</ele>
        <time>2025-02-15T09:31:20.000Z</time>
      </trkpt>
      <trkpt lat="-44.700254" lon="169.121254">
        <ele>288.054254</ele>
        <time>2025-02-15T09:31:34.000Z</time>
      </trkpt>
      <trkpt lat="-44.700502" lon="169.119614">
        <ele>292.010084</ele>
        <time>2025-02-15T09:31:47.000Z</time>
      </trkpt>
      <trkpt lat="-44.700638" lon="169.118466">
        <ele>295.738744</ele>
        <time>2025-02-15T09:31:56.000Z</time>
      </trkpt>
      <trkpt lat="-44.700707" lon="169.117758">
        <ele>298.266034</ele>
        <time>2025-02-15T09:32:02.000Z</time>
      </trkpt>
      <trkpt lat="-44.70084" lon="169.116306">
        <ele>303.297275</ele>
        <time>2025-02-15T09:32:14.000Z</time>
      </trkpt>
      <trkpt lat="-44.700875" lon="169.115965">
        <ele>304.491912</ele>
        <time>2025-02-15T09:32:17.000Z</time>
      </trkpt>
      <trkpt lat="-44.700992" lon="169.114674">
        <ele>308.788694</ele>
        <time>2025-02-15T09:32:27.000Z</time>
      </trkpt>
      <trkpt lat="-44.701006" lon="169.114549">
        <ele>309.202756</ele>
        <time>2025-02-15T09:32:28.000Z</time>
      </trkpt>
      <trkpt lat="-44.701076" lon="169.114517">
        <ele>309.474539</ele>
        <time>2025-02-15T09:32:29.000Z</time>
      </trkpt>
      <trkpt lat="-44.701079" lon="169.114477">
        <ele>309.659145</ele>
        <time>2025-02-15T09:32:29.000Z</time>
      </trkpt>
      <trkpt lat="-44.701051" lon="169.11439">
        <ele>309.963767</ele>
        <time>2025-02-15T09:32:30.000Z</time>
      </trkpt>
      <trkpt lat="-44.701452" lon="169.113407">
        <ele>312.764038</ele>
        <time>2025-02-15T09:32:39.000Z</time>
      </trkpt>
      <trkpt lat="-44.701529" lon="169.113156">
        <ele>313.449509</ele>
        <time>2025-02-15T09:32:41.000Z</time>
      </trkpt>
      <trkpt lat="-44.701566" lon="169.112919">
        <ele>314.020982</ele>
        <time>2025-02-15T09:32:43.000Z</time>
      </trkpt>
      <trkpt lat="-44.701153" lon="169.108931">
        <ele>322.002811</ele>
        <time>2025-02-15T09:33:15.000Z</time>
      </trkpt>
      <trkpt lat="-44.701093" lon="169.108304">
        <ele>323.180957</ele>
        <time>2025-02-15T09:33:20.000Z</time>
      </trkpt>
      <trkpt lat="-44.701031" lon="169.107561">
        <ele>324.605587</ele>
        <time>2025-02-15T09:33:26.000Z</time>
      </trkpt>
      <trkpt lat="-44.700953" lon="169.106995">
        <ele>325.695947</ele>
        <time>2025-02-15T09:33:31.000Z</time>
      </trkpt>
      <trkpt lat="-44.700896" lon="169.106764">
        <ele>326.176681</ele>
        <time>2025-02-15T09:33:33.000Z</time>
      </trkpt>
      <trkpt lat="-44.700828" lon="169.106502">
        <ele>326.734495</ele>
        <time>2025-02-15T09:33:35.000Z</time>
      </trkpt>
      <trkpt lat="-44.70057" lon="169.105766">
        <ele>328.42906</ele>
        <time>2025-02-15T09:33:41.000Z</time>
      </trkpt>
      <trkpt lat="-44.700214" lon="169.104812">
        <ele>330.643069</ele>
        <time>2025-02-15T09:33:50.000Z</time>
      </trkpt>
      <trkpt lat="-44.699725" lon="169.103485">
        <ele>331.202513</ele>
        <time>2025-02-15T09:34:02.000Z</time>
      </trkpt>
      <trkpt lat="-44.699336" lon="169.102525">
        <ele>331.478886</ele>
        <time>2025-02-15T09:34:11.000Z</time>
      </trkpt>
      <trkpt lat="-44.698922" lon="169.101559">
        <ele>330.476032</ele>
        <time>2025-02-15T09:34:20.000Z</time>
      </trkpt>
      <trkpt lat="-44.698825" lon="169.10134">
        <ele>330.230104</ele>
        <time>2025-02-15T09:34:22.000Z</time>
      </trkpt>
      <trkpt lat="-44.698545" lon="169.100716">
        <ele>329.534613</ele>
        <time>2025-02-15T09:34:28.000Z</time>
      </trkpt>
      <trkpt lat="-44.698116" lon="169.099766">
        <ele>328.944813</ele>
        <time>2025-02-15T09:34:37.000Z</time>
      </trkpt>
      <trkpt lat="-44.697894" lon="169.099385">
        <ele>328.814991</ele>
        <time>2025-02-15T09:34:41.000Z</time>
      </trkpt>
      <trkpt lat="-44.697762" lon="169.099226">
        <ele>328.750006</ele>
        <time>2025-02-15T09:34:43.000Z</time>
      </trkpt>
      <trkpt lat="-44.697522" lon="169.09899">
        <ele>328.644019</ele>
        <time>2025-02-15T09:34:46.000Z</time>
      </trkpt>
      <trkpt lat="-44.697135" lon="169.098752">
        <ele>328.486141</ele>
        <time>2025-02-15T09:34:51.000Z</time>
      </trkpt>
      <trkpt lat="-44.69424" lon="169.097211">
        <ele>326.734108</ele>
        <time>2025-02-15T09:35:25.000Z</time>
      </trkpt>
      <trkpt lat="-44.694123" lon="169.097148">
        <ele>326.611843</ele>
        <time>2025-02-15T09:35:26.000Z</time>
      </trkpt>
      <trkpt lat="-44.693742" lon="169.096833">
        <ele>326.175124</ele>
        <time>2025-02-15T09:35:31.000Z</time>
      </trkpt>
      <trkpt lat="-44.693541" lon="169.096603">
        <ele>325.554892</ele>
        <time>2025-02-15T09:35:34.000Z</time>
      </trkpt>
      <trkpt lat="-44.693023" lon="169.095938">
        <ele>323.879435</ele>
        <time>2025-02-15T09:35:42.000Z</time>
      </trkpt>
      <trkpt lat="-44.692874" lon="169.095683">
        <ele>323.317213</ele>
        <time>2025-02-15T09:35:45.000Z</time>
      </trkpt>
      <trkpt lat="-44.692502" lon="169.094602">
        <ele>321.452143</ele>
        <time>2025-02-15T09:35:54.000Z</time>
      </trkpt>
      <trkpt lat="-44.692204" lon="169.093869">
        <ele>320.529134</ele>
        <time>2025-02-15T09:36:01.000Z</time>
      </trkpt>
      <trkpt lat="-44.692169" lon="169.093783">
        <ele>320.407473</ele>
        <time>2025-02-15T09:36:02.000Z</time>
      </trkpt>
      <trkpt lat="-44.691641" lon="169.092626">
        <ele>318.996994</ele>
        <time>2025-02-15T09:36:13.000Z</time>
      </trkpt>
      <trkpt lat="-44.690497" lon="169.090449">
        <ele>318.909258</ele>
        <time>2025-02-15T09:36:34.000Z</time>
      </trkpt>
      <trkpt lat="-44.688449" lon="169.086695">
        <ele>323.316683</ele>
        <time>2025-02-15T09:37:11.000Z</time>
      </trkpt>
      <trkpt lat="-44.68751" lon="169.085179">
        <ele>328.788742</ele>
        <time>2025-02-15T09:37:27.000Z</time>
      </trkpt>
      <trkpt lat="-44.686499" lon="169.083629">
        <ele>335.207679</ele>
        <time>2025-02-15T09:37:44.000Z</time>
      </trkpt>
      <trkpt lat="-44.685476" lon="169.082518">
        <ele>340.152831</ele>
        <time>2025-02-15T09:37:58.000Z</time>
      </trkpt>
      <trkpt lat="-44.683017" lon="169.080787">
        <ele>346.874002</ele>
        <time>2025-02-15T09:38:29.000Z</time>
      </trkpt>
      <trkpt lat="-44.680782" lon="169.078899">
        <ele>346.240638</ele>
        <time>2025-02-15T09:38:58.000Z</time>
      </trkpt>
      <trkpt lat="-44.677277" lon="169.075754">
        <ele>334.892835</ele>
        <time>2025-02-15T09:39:44.000Z</time>
      </trkpt>
      <trkpt lat="-44.677167" lon="169.075629">
        <ele>334.482644</ele>
        <time>2025-02-15T09:39:46.000Z</time>
      </trkpt>
      <trkpt lat="-44.676715" lon="169.075167">
        <ele>333.014104</ele>
        <time>2025-02-15T09:39:52.000Z</time>
      </trkpt>
      <trkpt lat="-44.675091" lon="169.073276">
        <ele>330.329033</ele>
        <time>2025-02-15T09:40:15.000Z</time>
      </trkpt>
      <trkpt lat="-44.674345" lon="169.072494">
        <ele>329.139786</ele>
        <time>2025-02-15T09:40:25.000Z</time>
      </trkpt>
      <trkpt lat="-44.673957" lon="169.072262">
        <ele>328.624722</ele>
        <time>2025-02-15T09:40:30.000Z</time>
      </trkpt>
      <trkpt lat="-44.673333" lon="169.072069">
        <ele>328.306358</ele>
        <time>2025-02-15T09:40:37.000Z</time>
      </trkpt>
      <trkpt lat="-44.672742" lon="169.071889">
        <ele>328.120791</ele>
        <time>2025-02-15T09:40:44.000Z</time>
      </trkpt>
      <trkpt lat="-44.67114" lon="169.071361">
        <ele>327.942349</ele>
        <time>2025-02-15T09:41:02.000Z</time>
      </trkpt>
      <trkpt lat="-44.670833" lon="169.07115">
        <ele>327.952696</ele>
        <time>2025-02-15T09:41:06.000Z</time>
      </trkpt>
      <trkpt lat="-44.670595" lon="169.070867">
        <ele>327.961972</ele>
        <time>2025-02-15T09:41:09.000Z</time>
      </trkpt>
      <trkpt lat="-44.669337" lon="169.069118">
        <ele>327.654208</ele>
        <time>2025-02-15T09:41:29.000Z</time>
      </trkpt>
      <trkpt lat="-44.668896" lon="169.068425">
        <ele>327.92297</ele>
        <time>2025-02-15T09:41:36.000Z</time>
      </trkpt>
      <trkpt lat="-44.668273" lon="169.067241">
        <ele>328.625841</ele>
        <time>2025-02-15T09:41:48.000Z</time>
      </trkpt>
      <trkpt lat="-44.668054" lon="169.066941">
        <ele>328.817926</ele>
        <time>2025-02-15T09:41:51.000Z</time>
      </trkpt>
      <trkpt lat="-44.66646" lon="169.065197">
        <ele>328.231754</ele>
        <time>2025-02-15T09:42:13.000Z</time>
      </trkpt>
      <trkpt lat="-44.665822" lon="169.064339">
        <ele>327.13355</ele>
        <time>2025-02-15T09:42:23.000Z</time>
      </trkpt>
      <trkpt lat="-44.664638" lon="169.062425">
        <ele>322.504692</ele>
        <time>2025-02-15T09:42:43.000Z</time>
      </trkpt>
      <trkpt lat="-44.664248" lon="169.061664">
        <ele>320.250687</ele>
        <time>2025-02-15T09:42:50.000Z</time>
      </trkpt>
      <trkpt lat="-44.66388" lon="169.060822">
        <ele>317.118882</ele>
        <time>2025-02-15T09:42:58.000Z</time>
      </trkpt>
      <trkpt lat="-44.6636" lon="169.059982">
        <ele>314.228556</ele>
        <time>2025-02-15T09:43:05.000Z</time>
      </trkpt>
      <trkpt lat="-44.662932" lon="169.057565">
        <ele>311.73435</ele>
        <time>2025-02-15T09:43:26.000Z</time>
      </trkpt>
      <trkpt lat="-44.662781" lon="169.056846">
        <ele>311.966665</ele>
        <time>2025-02-15T09:43:32.000Z</time>
      </trkpt>
      <trkpt lat="-44.662778" lon="169.056189">
        <ele>313.328054</ele>
        <time>2025-02-15T09:43:37.000Z</time>
      </trkpt>
      <trkpt lat="-44.662883" lon="169.054837">
        <ele>316.11536</ele>
        <time>2025-02-15T09:43:48.000Z</time>
      </trkpt>
      <trkpt lat="-44.66287" lon="169.054415">
        <ele>316.600823</ele>
        <time>2025-02-15T09:43:51.000Z</time>
      </trkpt>
      <trkpt lat="-44.662645" lon="169.053263">
        <ele>314.479824</ele>
        <time>2025-02-15T09:44:00.000Z</time>
      </trkpt>
      <trkpt lat="-44.662597" lon="169.052964">
        <ele>313.931658</ele>
        <time>2025-02-15T09:44:02.000Z</time>
      </trkpt>
      <trkpt lat="-44.662615" lon="169.052603">
        <ele>313.30235</ele>
        <time>2025-02-15T09:44:05.000Z</time>
      </trkpt>
      <trkpt lat="-44.663136" lon="169.048898">
        <ele>305.632838</ele>
        <time>2025-02-15T09:44:35.000Z</time>
      </trkpt>
      <trkpt lat="-44.663321" lon="169.048218">
        <ele>304.859944</ele>
        <time>2025-02-15T09:44:41.000Z</time>
      </trkpt>
      <trkpt lat="-44.663617" lon="169.04761">
        <ele>304.062274</ele>
        <time>2025-02-15T09:44:47.000Z</time>
      </trkpt>
      <trkpt lat="-44.664258" lon="169.046573">
        <ele>304.192843</ele>
        <time>2025-02-15T09:44:58.000Z</time>
      </trkpt>
      <trkpt lat="-44.664429" lon="169.046159">
        <ele>304.453944</ele>
        <time>2025-02-15T09:45:02.000Z</time>
      </trkpt>
      <trkpt lat="-44.664631" lon="169.045695">
        <ele>304.73993</ele>
        <time>2025-02-15T09:45:06.000Z</time>
      </trkpt>
      <trkpt lat="-44.664823" lon="169.044801">
        <ele>304.777409</ele>
        <time>2025-02-15T09:45:13.000Z</time>
      </trkpt>
      <trkpt lat="-44.664865" lon="169.04437">
        <ele>304.548081</ele>
        <time>2025-02-15T09:45:16.000Z</time>
      </trkpt>
      <trkpt lat="-44.664801" lon="169.044047">
        <ele>304.372801</ele>
        <time>2025-02-15T09:45:19.000Z</time>
      </trkpt>
      <trkpt lat="-44.664715" lon="169.043717">
        <ele>304.182608</ele>
        <time>2025-02-15T09:45:22.000Z</time>
      </trkpt>
      <trkpt lat="-44.664138" lon="169.04241">
        <ele>302.895469</ele>
        <time>2025-02-15T09:45:34.000Z</time>
      </trkpt>
      <trkpt lat="-44.664046" lon="169.041995">
        <ele>302.291447</ele>
        <time>2025-02-15T09:45:37.000Z</time>
      </trkpt>
      <trkpt lat="-44.664031" lon="169.041556">
        <ele>301.659478</ele>
        <time>2025-02-15T09:45:40.000Z</time>
      </trkpt>
      <trkpt lat="-44.664085" lon="169.041187">
        <ele>301.150724</ele>
        <time>2025-02-15T09:45:43.000Z</time>
      </trkpt>
      <trkpt lat="-44.664223" lon="169.04076">
        <ele>300.484307</ele>
        <time>2025-02-15T09:45:47.000Z</time>
      </trkpt>
      <trkpt lat="-44.664351" lon="169.04054">
        <ele>300.107815</ele>
        <time>2025-02-15T09:45:49.000Z</time>
      </trkpt>
      <trkpt lat="-44.664736" lon="169.039885">
        <ele>299.024518</ele>
        <time>2025-02-15T09:45:56.000Z</time>
      </trkpt>
      <trkpt lat="-44.66583" lon="169.038398">
        <ele>296.421885</ele>
        <time>2025-02-15T09:46:13.000Z</time>
      </trkpt>
      <trkpt lat="-44.666027" lon="169.038056">
        <ele>295.920943</ele>
        <time>2025-02-15T09:46:16.000Z</time>
      </trkpt>
      <trkpt lat="-44.666508" lon="169.036933">
        <ele>294.501404</ele>
        <time>2025-02-15T09:46:26.000Z</time>
      </trkpt>
      <trkpt lat="-44.666638" lon="169.03673">
        <ele>294.189546</ele>
        <time>2025-02-15T09:46:28.000Z</time>
      </trkpt>
      <trkpt lat="-44.668286" lon="169.034557">
        <ele>291.416175</ele>
        <time>2025-02-15T09:46:53.000Z</time>
      </trkpt>
      <trkpt lat="-44.668838" lon="169.033942">
        <ele>290.709866</ele>
        <time>2025-02-15T09:47:01.000Z</time>
      </trkpt>
      <trkpt lat="-44.670081" lon="169.0331">
        <ele>290.910318</ele>
        <time>2025-02-15T09:47:16.000Z</time>
      </trkpt>
      <trkpt lat="-44.670776" lon="169.032455">
        <ele>291.867954</ele>
        <time>2025-02-15T09:47:25.000Z</time>
      </trkpt>
      <trkpt lat="-44.672406" lon="169.03044">
        <ele>298.230699</ele>
        <time>2025-02-15T09:47:49.000Z</time>
      </trkpt>
      <trkpt lat="-44.672977" lon="169.029857">
        <ele>299.074239</ele>
        <time>2025-02-15T09:47:57.000Z</time>
      </trkpt>
      <trkpt lat="-44.673312" lon="169.0291">
        <ele>299.838612</ele>
        <time>2025-02-15T09:48:04.000Z</time>
      </trkpt>
      <trkpt lat="-44.673725" lon="169.028495">
        <ele>299.552329</ele>
        <time>2025-02-15T09:48:11.000Z</time>
      </trkpt>
      <trkpt lat="-44.673857" lon="169.028222">
        <ele>298.986289</ele>
        <time>2025-02-15T09:48:14.000Z</time>
      </trkpt>
      <trkpt lat="-44.6739" lon="169.027937">
        <ele>298.474025</ele>
        <time>2025-02-15T09:48:16.000Z</time>
      </trkpt>
      <trkpt lat="-44.674012" lon="169.026706">
        <ele>296.364171</ele>
        <time>2025-02-15T09:48:26.000Z</time>
      </trkpt>
      <trkpt lat="-44.674143" lon="169.026158">
        <ele>295.328829</ele>
        <time>2025-02-15T09:48:31.000Z</time>
      </trkpt>
      <trkpt lat="-44.674331" lon="169.025715">
        <ele>294.368788</ele>
        <time>2025-02-15T09:48:35.000Z</time>
      </trkpt>
      <trkpt lat="-44.674644" lon="169.025377">
        <ele>293.338667</ele>
        <time>2025-02-15T09:48:39.000Z</time>
      </trkpt>
      <trkpt lat="-44.67501" lon="169.024766">
        <ele>291.880497</ele>
        <time>2025-02-15T09:48:45.000Z</time>
      </trkpt>
      <trkpt lat="-44.67516" lon="169.024237">
        <ele>290.894643</ele>
        <time>2025-02-15T09:48:50.000Z</time>
      </trkpt>
      <trkpt lat="-44.675269" lon="169.023597">
        <ele>289.967169</ele>
        <time>2025-02-15T09:48:55.000Z</time>
      </trkpt>
      <trkpt lat="-44.675363" lon="169.022743">
        <ele>288.743178</ele>
        <time>2025-02-15T09:49:02.000Z</time>
      </trkpt>
      <trkpt lat="-44.675351" lon="169.022197">
        <ele>287.977224</ele>
        <time>2025-02-15T09:49:06.000Z</time>
      </trkpt>
      <trkpt lat="-44.675169" lon="169.021085">
        <ele>287.173023</ele>
        <time>2025-02-15T09:49:15.000Z</time>
      </trkpt>
      <trkpt lat="-44.674797" lon="169.019073">
        <ele>286.376698</ele>
        <time>2025-02-15T09:49:31.000Z</time>
      </trkpt>
      <trkpt lat="-44.674743" lon="169.018841">
        <ele>286.394259</ele>
        <time>2025-02-15T09:49:33.000Z</time>
      </trkpt>
      <trkpt lat="-44.674737" lon="169.01856">
        <ele>286.416024</ele>
        <time>2025-02-15T09:49:35.000Z</time>
      </trkpt>
      <trkpt lat="-44.674633" lon="169.016232">
        <ele>286.654127</ele>
        <time>2025-02-15T09:49:53.000Z</time>
      </trkpt>
      <trkpt lat="-44.674527" lon="169.014633">
        <ele>286.908782</ele>
        <time>2025-02-15T09:50:06.000Z</time>
      </trkpt>
      <trkpt lat="-44.67446" lon="169.01437">
        <ele>286.908249</ele>
        <time>2025-02-15T09:50:08.000Z</time>
      </trkpt>
      <trkpt lat="-44.674354" lon="169.013996">
        <ele>286.835908</ele>
        <time>2025-02-15T09:50:11.000Z</time>
      </trkpt>
      <trkpt lat="-44.674135" lon="169.013603">
        <ele>286.742747</ele>
        <time>2025-02-15T09:50:15.000Z</time>
      </trkpt>
      <trkpt lat="-44.672395" lon="169.010676">
        <ele>285.640821</ele>
        <time>2025-02-15T09:50:45.000Z</time>
      </trkpt>
      <trkpt lat="-44.672031" lon="169.010095">
        <ele>285.37436</ele>
        <time>2025-02-15T09:50:51.000Z</time>
      </trkpt>
      <trkpt lat="-44.671632" lon="169.009595">
        <ele>285.120238</ele>
        <time>2025-02-15T09:50:57.000Z</time>
      </trkpt>
      <trkpt lat="-44.670812" lon="169.009266">
        <ele>284.715063</ele>
        <time>2025-02-15T09:51:06.000Z</time>
      </trkpt>
      <trkpt lat="-44.669994" lon="169.008944">
        <ele>285.395856</ele>
        <time>2025-02-15T09:51:15.000Z</time>
      </trkpt>
      <trkpt lat="-44.669196" lon="169.008534">
        <ele>286.108325</ele>
        <time>2025-02-15T09:51:24.000Z</time>
      </trkpt>
      <trkpt lat="-44.668941" lon="169.008193">
        <ele>286.752275</ele>
        <time>2025-02-15T09:51:28.000Z</time>
      </trkpt>
      <trkpt lat="-44.668763" lon="169.00772">
        <ele>287.656995</ele>
        <time>2025-02-15T09:51:32.000Z</time>
      </trkpt>
      <trkpt lat="-44.668697" lon="169.00723">
        <ele>288.530118</ele>
        <time>2025-02-15T09:51:36.000Z</time>
      </trkpt>
      <trkpt lat="-44.668768" lon="169.006726">
        <ele>289.37527</ele>
        <time>2025-02-15T09:51:40.000Z</time>
      </trkpt>
      <trkpt lat="-44.669294" lon="169.005784">
        <ele>291.127812</ele>
        <time>2025-02-15T09:51:49.000Z</time>
      </trkpt>
      <trkpt lat="-44.669633" lon="169.00509">
        <ele>292.127049</ele>
        <time>2025-02-15T09:51:56.000Z</time>
      </trkpt>
      <trkpt lat="-44.669723" lon="169.004579">
        <ele>292.741136</ele>
        <time>2025-02-15T09:52:00.000Z</time>
      </trkpt>
      <trkpt lat="-44.669745" lon="169.004163">
        <ele>293.234401</ele>
        <time>2025-02-15T09:52:03.000Z</time>
      </trkpt>
      <trkpt lat="-44.669707" lon="169.003754">
        <ele>293.5492</ele>
        <time>2025-02-15T09:52:06.000Z</time>
      </trkpt>
      <trkpt lat="-44.66963" lon="169.003105">
        <ele>293.802566</ele>
        <time>2025-02-15T09:52:11.000Z</time>
      </trkpt>
      <trkpt lat="-44.669098" lon="168.998267">
        <ele>296.00026</ele>
        <time>2025-02-15T09:52:50.000Z</time>
      </trkpt>
      <trkpt lat="-44.669019" lon="168.997574">
        <ele>296.675168</ele>
        <time>2025-02-15T09:52:56.000Z</time>
      </trkpt>
      <trkpt lat="-44.668935" lon="168.997106">
        <ele>297.143666</ele>
        <time>2025-02-15T09:53:00.000Z</time>
      </trkpt>
      <trkpt lat="-44.668869" lon="168.99688">
        <ele>297.365886</ele>
        <time>2025-02-15T09:53:02.000Z</time>
      </trkpt>
      <trkpt lat="-44.668516" lon="168.996276">
        <ele>298.418076</ele>
        <time>2025-02-15T09:53:08.000Z</time>
      </trkpt>
      <trkpt lat="-44.668283" lon="168.996027">
        <ele>299.135282</ele>
        <time>2025-02-15T09:53:11.000Z</time>
      </trkpt>
      <trkpt lat="-44.668135" lon="168.995869">
        <ele>299.563288</ele>
        <time>2025-02-15T09:53:13.000Z</time>
      </trkpt>
      <trkpt lat="-44.667889" lon="168.995702">
        <ele>300.22327</ele>
        <time>2025-02-15T09:53:16.000Z</time>
      </trkpt>
      <trkpt lat="-44.667656" lon="168.995585">
        <ele>300.823601</ele>
        <time>2025-02-15T09:53:19.000Z</time>
      </trkpt>
      <trkpt lat="-44.667493" lon="168.995438">
        <ele>301.275255</ele>
        <time>2025-02-15T09:53:21.000Z</time>
      </trkpt>
      <trkpt lat="-44.66691" lon="168.994423">
        <ele>302.511409</ele>
        <time>2025-02-15T09:53:31.000Z</time>
      </trkpt>
      <trkpt lat="-44.666671" lon="168.994147">
        <ele>302.749409</ele>
        <time>2025-02-15T09:53:34.000Z</time>
      </trkpt>
      <trkpt lat="-44.666281" lon="168.993921">
        <ele>303.06702</ele>
        <time>2025-02-15T09:53:39.000Z</time>
      </trkpt>
      <trkpt lat="-44.66608" lon="168.99375">
        <ele>303.246335</ele>
        <time>2025-02-15T09:53:42.000Z</time>
      </trkpt>
      <trkpt lat="-44.664959" lon="168.991605">
        <ele>300.150594</ele>
        <time>2025-02-15T09:54:03.000Z</time>
      </trkpt>
      <trkpt lat="-44.663781" lon="168.989235">
        <ele>295.867528</ele>
        <time>2025-02-15T09:54:26.000Z</time>
      </trkpt>
      <trkpt lat="-44.66362" lon="168.988956">
        <ele>296.062727</ele>
        <time>2025-02-15T09:54:29.000Z</time>
      </trkpt>
      <trkpt lat="-44.663485" lon="168.988795">
        <ele>296.192981</ele>
        <time>2025-02-15T09:54:31.000Z</time>
      </trkpt>
      <trkpt lat="-44.663501" lon="168.988791">
        <ele>296.193923</ele>
        <time>2025-02-15T09:54:31.000Z</time>
      </trkpt>
      <trkpt lat="-44.66348" lon="168.988782">
        <ele>296.196726</ele>
        <time>2025-02-15T09:54:31.000Z</time>
      </trkpt>
      <trkpt lat="-44.663501" lon="168.988791">
        <ele>296.199527</ele>
        <time>2025-02-15T09:54:31.000Z</time>
      </trkpt>
      <trkpt lat="-44.663501" lon="168.988797">
        <ele>296.200465</ele>
        <time>2025-02-15T09:54:31.000Z</time>
      </trkpt>
      <trkpt lat="-44.66362" lon="168.988941">
        <ele>296.330722</ele>
        <time>2025-02-15T09:54:33.000Z</time>
      </trkpt>
      <trkpt lat="-44.66379" lon="168.989238">
        <ele>296.525929</ele>
        <time>2025-02-15T09:54:36.000Z</time>
      </trkpt>
      <trkpt lat="-44.664964" lon="168.991611">
        <ele>300.117571</ele>
        <time>2025-02-15T09:54:59.000Z</time>
      </trkpt>
      <trkpt lat="-44.666095" lon="168.993736">
        <ele>303.100117</ele>
        <time>2025-02-15T09:55:20.000Z</time>
      </trkpt>
      <trkpt lat="-44.666288" lon="168.99393">
        <ele>303.396793</ele>
        <time>2025-02-15T09:55:23.000Z</time>
      </trkpt>
      <trkpt lat="-44.666668" lon="168.994139">
        <ele>303.314702</ele>
        <time>2025-02-15T09:55:28.000Z</time>
      </trkpt>
      <trkpt lat="-44.666909" lon="168.994432">
        <ele>302.749217</ele>
        <time>2025-02-15T09:55:32.000Z</time>
      </trkpt>
      <trkpt lat="-44.667497" lon="168.995445">
        <ele>301.070199</ele>
        <time>2025-02-15T09:55:42.000Z</time>
      </trkpt>
      <trkpt lat="-44.667655" lon="168.995586">
        <ele>300.729226</ele>
        <time>2025-02-15T09:55:44.000Z</time>
      </trkpt>
      <trkpt lat="-44.66789" lon="168.995705">
        <ele>300.245671</ele>
        <time>2025-02-15T09:55:47.000Z</time>
      </trkpt>
      <trkpt lat="-44.668142" lon="168.995873">
        <ele>299.643447</ele>
        <time>2025-02-15T09:55:50.000Z</time>
      </trkpt>
      <trkpt lat="-44.668278" lon="168.996016">
        <ele>299.252918</ele>
        <time>2025-02-15T09:55:52.000Z</time>
      </trkpt>
      <trkpt lat="-44.668516" lon="168.996279">
        <ele>298.598479</ele>
        <time>2025-02-15T09:55:55.000Z</time>
      </trkpt>
      <trkpt lat="-44.668875" lon="168.996881">
        <ele>297.371341</ele>
        <time>2025-02-15T09:56:01.000Z</time>
      </trkpt>
      <trkpt lat="-44.668927" lon="168.997096">
        <ele>297.011823</ele>
        <time>2025-02-15T09:56:03.000Z</time>
      </trkpt>
      <trkpt lat="-44.669008" lon="168.99757">
        <ele>296.398592</ele>
        <time>2025-02-15T09:56:07.000Z</time>
      </trkpt>
      <trkpt lat="-44.669097" lon="168.998265">
        <ele>295.970892</ele>
        <time>2025-02-15T09:56:13.000Z</time>
      </trkpt>
      <trkpt lat="-44.669642" lon="169.003108">
        <ele>293.741303</ele>
        <time>2025-02-15T09:56:52.000Z</time>
      </trkpt>
      <trkpt lat="-44.66971" lon="169.003753">
        <ele>293.373988</ele>
        <time>2025-02-15T09:56:57.000Z</time>
      </trkpt>
      <trkpt lat="-44.669758" lon="169.004164">
        <ele>293.139448</ele>
        <time>2025-02-15T09:57:00.000Z</time>
      </trkpt>
      <trkpt lat="-44.669729" lon="169.004579">
        <ele>292.904635</ele>
        <time>2025-02-15T09:57:03.000Z</time>
      </trkpt>
      <trkpt lat="-44.669644" lon="169.005083">
        <ele>292.435786</ele>
        <time>2025-02-15T09:57:07.000Z</time>
      </trkpt>
      <trkpt lat="-44.669301" lon="169.005778">
        <ele>291.101012</ele>
        <time>2025-02-15T09:57:14.000Z</time>
      </trkpt>
      <trkpt lat="-44.668764" lon="169.006733">
        <ele>289.213832</ele>
        <time>2025-02-15T09:57:24.000Z</time>
      </trkpt>
      <trkpt lat="-44.668688" lon="169.007217">
        <ele>288.464637</ele>
        <time>2025-02-15T09:57:28.000Z</time>
      </trkpt>
      <trkpt lat="-44.668758" lon="169.007735">
        <ele>287.746658</ele>
        <time>2025-02-15T09:57:32.000Z</time>
      </trkpt>
      <trkpt lat="-44.668936" lon="169.008194">
        <ele>287.002724</ele>
        <time>2025-02-15T09:57:36.000Z</time>
      </trkpt>
      <trkpt lat="-44.66919" lon="169.008526">
        <ele>286.332158</ele>
        <time>2025-02-15T09:57:40.000Z</time>
      </trkpt>
      <trkpt lat="-44.669999" lon="169.008942">
        <ele>285.157549</ele>
        <time>2025-02-15T09:57:50.000Z</time>
      </trkpt>
      <trkpt lat="-44.670815" lon="169.009259">
        <ele>284.999141</ele>
        <time>2025-02-15T09:57:59.000Z</time>
      </trkpt>
      <trkpt lat="-44.671621" lon="169.009607">
        <ele>284.991285</ele>
        <time>2025-02-15T09:58:08.000Z</time>
      </trkpt>
      <trkpt lat="-44.67203" lon="169.010089">
        <ele>285.320494</ele>
        <time>2025-02-15T09:58:14.000Z</time>
      </trkpt>
      <trkpt lat="-44.672398" lon="169.010674">
        <ele>285.660852</ele>
        <time>2025-02-15T09:58:20.000Z</time>
      </trkpt>
      <trkpt lat="-44.674136" lon="169.013588">
        <ele>286.755767</ele>
        <time>2025-02-15T09:58:50.000Z</time>
      </trkpt>
      <trkpt lat="-44.674355" lon="169.014012">
        <ele>286.777289</ele>
        <time>2025-02-15T09:58:54.000Z</time>
      </trkpt>
      <trkpt lat="-44.674468" lon="169.014363">
        <ele>286.793989</ele>
        <time>2025-02-15T09:58:57.000Z</time>
      </trkpt>
      <trkpt lat="-44.674528" lon="169.014633">
        <ele>286.805439</ele>
        <time>2025-02-15T09:58:59.000Z</time>
      </trkpt>
      <trkpt lat="-44.67464" lon="169.016241">
        <ele>286.684104</ele>
        <time>2025-02-15T09:59:12.000Z</time>
      </trkpt>
      <trkpt lat="-44.674745" lon="169.018546">
        <ele>286.402682</ele>
        <time>2025-02-15T09:59:30.000Z</time>
      </trkpt>
      <trkpt lat="-44.674756" lon="169.018841">
        <ele>286.429061</ele>
        <time>2025-02-15T09:59:32.000Z</time>
      </trkpt>
      <trkpt lat="-44.6748" lon="169.019064">
        <ele>286.450307</ele>
        <time>2025-02-15T09:59:34.000Z</time>
      </trkpt>
      <trkpt lat="-44.675177" lon="169.02109">
        <ele>287.179927</ele>
        <time>2025-02-15T09:59:51.000Z</time>
      </trkpt>
      <trkpt lat="-44.675364" lon="169.022197">
        <ele>288.176557</ele>
        <time>2025-02-15T10:00:00.000Z</time>
      </trkpt>
      <trkpt lat="-44.675359" lon="169.022731">
        <ele>288.650087</ele>
        <time>2025-02-15T10:00:04.000Z</time>
      </trkpt>
      <trkpt lat="-44.675277" lon="169.023585">
        <ele>289.904651</ele>
        <time>2025-02-15T10:00:11.000Z</time>
      </trkpt>
      <trkpt lat="-44.675171" lon="169.024239">
        <ele>290.94655</ele>
        <time>2025-02-15T10:00:16.000Z</time>
      </trkpt>
      <trkpt lat="-44.675012" lon="169.024769">
        <ele>291.877839</ele>
        <time>2025-02-15T10:00:21.000Z</time>
      </trkpt>
      <trkpt lat="-44.674647" lon="169.025381">
        <ele>293.213862</ele>
        <time>2025-02-15T10:00:27.000Z</time>
      </trkpt>
      <trkpt lat="-44.674334" lon="169.025712">
        <ele>294.331556</ele>
        <time>2025-02-15T10:00:31.000Z</time>
      </trkpt>
      <trkpt lat="-44.674134" lon="169.026159">
        <ele>295.373226</ele>
        <time>2025-02-15T10:00:35.000Z</time>
      </trkpt>
      <trkpt lat="-44.674011" lon="169.026706">
        <ele>296.536869</ele>
        <time>2025-02-15T10:00:40.000Z</time>
      </trkpt>
      <trkpt lat="-44.673902" lon="169.02792">
        <ele>298.427099</ele>
        <time>2025-02-15T10:00:50.000Z</time>
      </trkpt>
      <trkpt lat="-44.67384" lon="169.028226">
        <ele>298.712571</ele>
        <time>2025-02-15T10:00:53.000Z</time>
      </trkpt>
      <trkpt lat="-44.673737" lon="169.02851">
        <ele>299.027992</ele>
        <time>2025-02-15T10:00:56.000Z</time>
      </trkpt>
      <trkpt lat="-44.673313" lon="169.029106">
        <ele>299.836805</ele>
        <time>2025-02-15T10:01:03.000Z</time>
      </trkpt>
      <trkpt lat="-44.672972" lon="169.029872">
        <ele>299.628561</ele>
        <time>2025-02-15T10:01:10.000Z</time>
      </trkpt>
      <trkpt lat="-44.672408" lon="169.030453">
        <ele>297.869581</ele>
        <time>2025-02-15T10:01:18.000Z</time>
      </trkpt>
      <trkpt lat="-44.670767" lon="169.032453">
        <ele>291.913898</ele>
        <time>2025-02-15T10:01:42.000Z</time>
      </trkpt>
      <trkpt lat="-44.670082" lon="169.033099">
        <ele>290.587346</ele>
        <time>2025-02-15T10:01:51.000Z</time>
      </trkpt>
      <trkpt lat="-44.668841" lon="169.033944">
        <ele>290.552909</ele>
        <time>2025-02-15T10:02:06.000Z</time>
      </trkpt>
      <trkpt lat="-44.668276" lon="169.034552">
        <ele>291.370435</ele>
        <time>2025-02-15T10:02:14.000Z</time>
      </trkpt>
      <trkpt lat="-44.666651" lon="169.036733">
        <ele>294.212647</ele>
        <time>2025-02-15T10:02:39.000Z</time>
      </trkpt>
      <trkpt lat="-44.666507" lon="169.036938">
        <ele>294.476657</ele>
        <time>2025-02-15T10:02:41.000Z</time>
      </trkpt>
      <trkpt lat="-44.666033" lon="169.038059">
        <ele>295.884239</ele>
        <time>2025-02-15T10:02:51.000Z</time>
      </trkpt>
      <trkpt lat="-44.665814" lon="169.0384">
        <ele>296.457617</ele>
        <time>2025-02-15T10:02:55.000Z</time>
      </trkpt>
      <trkpt lat="-44.664738" lon="169.039883">
        <ele>299.113927</ele>
        <time>2025-02-15T10:03:12.000Z</time>
      </trkpt>
      <trkpt lat="-44.664343" lon="169.040536">
        <ele>300.185657</ele>
        <time>2025-02-15T10:03:19.000Z</time>
      </trkpt>
      <trkpt lat="-44.66421" lon="169.040742">
        <ele>300.524595</ele>
        <time>2025-02-15T10:03:21.000Z</time>
      </trkpt>
      <trkpt lat="-44.664094" lon="169.041195">
        <ele>301.119928</ele>
        <time>2025-02-15T10:03:25.000Z</time>
      </trkpt>
      <trkpt lat="-44.66403" lon="169.041551">
        <ele>301.576773</ele>
        <time>2025-02-15T10:03:28.000Z</time>
      </trkpt>
      <trkpt lat="-44.664053" lon="169.042005">
        <ele>302.149621</ele>
        <time>2025-02-15T10:03:32.000Z</time>
      </trkpt>
      <trkpt lat="-44.664143" lon="169.042416">
        <ele>302.697126</ele>
        <time>2025-02-15T10:03:35.000Z</time>
      </trkpt>
      <trkpt lat="-44.664701" lon="169.043719">
        <ele>304.615561</ele>
        <time>2025-02-15T10:03:47.000Z</time>
      </trkpt>
      <trkpt lat="-44.664807" lon="169.044045">
        <ele>304.597708</ele>
        <time>2025-02-15T10:03:50.000Z</time>
      </trkpt>
      <trkpt lat="-44.664861" lon="169.04437">
        <ele>304.581264</ele>
        <time>2025-02-15T10:03:53.000Z</time>
      </trkpt>
      <trkpt lat="-44.664818" lon="169.044807">
        <ele>304.559748</ele>
        <time>2025-02-15T10:03:56.000Z</time>
      </trkpt>
      <trkpt lat="-44.664631" lon="169.045683">
        <ele>304.514188</ele>
        <time>2025-02-15T10:04:03.000Z</time>
      </trkpt>
      <trkpt lat="-44.664443" lon="169.046163">
        <ele>304.475278</ele>
        <time>2025-02-15T10:04:07.000Z</time>
      </trkpt>
      <trkpt lat="-44.664255" lon="169.046576">
        <ele>304.378323</ele>
        <time>2025-02-15T10:04:11.000Z</time>
      </trkpt>
      <trkpt lat="-44.663613" lon="169.047597">
        <ele>304.114983</ele>
        <time>2025-02-15T10:04:22.000Z</time>
      </trkpt>
      <trkpt lat="-44.663318" lon="169.048215">
        <ele>304.267517</ele>
        <time>2025-02-15T10:04:28.000Z</time>
      </trkpt>
      <trkpt lat="-44.663125" lon="169.048885">
        <ele>305.558089</ele>
        <time>2025-02-15T10:04:34.000Z</time>
      </trkpt>
      <trkpt lat="-44.662606" lon="169.052609">
        <ele>313.768243</ele>
        <time>2025-02-15T10:05:04.000Z</time>
      </trkpt>
      <trkpt lat="-44.662594" lon="169.052956">
        <ele>314.652628</ele>
        <time>2025-02-15T10:05:07.000Z</time>
      </trkpt>
      <trkpt lat="-44.662643" lon="169.053269">
        <ele>314.859957</ele>
        <time>2025-02-15T10:05:10.000Z</time>
      </trkpt>
      <trkpt lat="-44.662873" lon="169.054411">
        <ele>315.302568</ele>
        <time>2025-02-15T10:05:19.000Z</time>
      </trkpt>
      <trkpt lat="-44.662886" lon="169.054834">
        <ele>315.455534</ele>
        <time>2025-02-15T10:05:22.000Z</time>
      </trkpt>
      <trkpt lat="-44.662782" lon="169.056195">
        <ele>314.19624</ele>
        <time>2025-02-15T10:05:33.000Z</time>
      </trkpt>
      <trkpt lat="-44.662784" lon="169.056856">
        <ele>312.816479</ele>
        <time>2025-02-15T10:05:38.000Z</time>
      </trkpt>
      <trkpt lat="-44.66294" lon="169.057563">
        <ele>311.250659</ele>
        <time>2025-02-15T10:05:44.000Z</time>
      </trkpt>
      <trkpt lat="-44.663603" lon="169.059988">
        <ele>314.143468</ele>
        <time>2025-02-15T10:06:05.000Z</time>
      </trkpt>
      <trkpt lat="-44.66388" lon="169.06082">
        <ele>316.658355</ele>
        <time>2025-02-15T10:06:12.000Z</time>
      </trkpt>
      <trkpt lat="-44.664256" lon="169.061665">
        <ele>319.985026</ele>
        <time>2025-02-15T10:06:20.000Z</time>
      </trkpt>
      <trkpt lat="-44.664631" lon="169.062426">
        <ele>323.102156</ele>
        <time>2025-02-15T10:06:27.000Z</time>
      </trkpt>
      <trkpt lat="-44.665827" lon="169.064327">
        <ele>327.523101</ele>
        <time>2025-02-15T10:06:47.000Z</time>
      </trkpt>
      <trkpt lat="-44.666474" lon="169.065199">
        <ele>328.139957</ele>
        <time>2025-02-15T10:06:57.000Z</time>
      </trkpt>
      <trkpt lat="-44.668065" lon="169.066948">
        <ele>328.574968</ele>
        <time>2025-02-15T10:07:19.000Z</time>
      </trkpt>
      <trkpt lat="-44.668264" lon="169.067231">
        <ele>328.52324</ele>
        <time>2025-02-15T10:07:22.000Z</time>
      </trkpt>
      <trkpt lat="-44.668894" lon="169.068411">
        <ele>328.113774</ele>
        <time>2025-02-15T10:07:34.000Z</time>
      </trkpt>
      <trkpt lat="-44.669346" lon="169.069123">
        <ele>327.768024</ele>
        <time>2025-02-15T10:07:42.000Z</time>
      </trkpt>
      <trkpt lat="-44.6706" lon="169.070873">
        <ele>327.935725</ele>
        <time>2025-02-15T10:08:02.000Z</time>
      </trkpt>
      <trkpt lat="-44.670841" lon="169.071151">
        <ele>328.032525</ele>
        <time>2025-02-15T10:08:05.000Z</time>
      </trkpt>
      <trkpt lat="-44.671123" lon="169.071347">
        <ele>328.080935</ele>
        <time>2025-02-15T10:08:08.000Z</time>
      </trkpt>
      <trkpt lat="-44.672743" lon="169.071884">
        <ele>327.860606</ele>
        <time>2025-02-15T10:08:27.000Z</time>
      </trkpt>
      <trkpt lat="-44.673328" lon="169.072059">
        <ele>328.321438</ele>
        <time>2025-02-15T10:08:34.000Z</time>
      </trkpt>
      <trkpt lat="-44.673959" lon="169.072272">
        <ele>328.833966</ele>
        <time>2025-02-15T10:08:41.000Z</time>
      </trkpt>
      <trkpt lat="-44.674334" lon="169.072495">
        <ele>329.15537</ele>
        <time>2025-02-15T10:08:46.000Z</time>
      </trkpt>
      <trkpt lat="-44.675109" lon="169.073284">
        <ele>330.274728</ele>
        <time>2025-02-15T10:08:57.000Z</time>
      </trkpt>
      <trkpt lat="-44.676718" lon="169.075178">
        <ele>333.352281</ele>
        <time>2025-02-15T10:09:20.000Z</time>
      </trkpt>
      <trkpt lat="-44.677157" lon="169.075639">
        <ele>334.261449</ele>
        <time>2025-02-15T10:09:26.000Z</time>
      </trkpt>
      <trkpt lat="-44.677277" lon="169.075761">
        <ele>334.511533</ele>
        <time>2025-02-15T10:09:28.000Z</time>
      </trkpt>
      <trkpt lat="-44.680785" lon="169.0789">
        <ele>346.59082</ele>
        <time>2025-02-15T10:10:14.000Z</time>
      </trkpt>
      <trkpt lat="-44.68302" lon="169.080791">
        <ele>346.728326</ele>
        <time>2025-02-15T10:10:43.000Z</time>
      </trkpt>
      <trkpt lat="-44.685479" lon="169.082535">
        <ele>340.13131</ele>
        <time>2025-02-15T10:11:14.000Z</time>
      </trkpt>
      <trkpt lat="-44.686498" lon="169.083645">
        <ele>335.392027</ele>
        <time>2025-02-15T10:11:28.000Z</time>
      </trkpt>
      <trkpt lat="-44.687513" lon="169.085177">
        <ele>328.603647</ele>
        <time>2025-02-15T10:11:45.000Z</time>
      </trkpt>
      <trkpt lat="-44.688446" lon="169.086698">
        <ele>323.875652</ele>
        <time>2025-02-15T10:12:01.000Z</time>
      </trkpt>
      <trkpt lat="-44.690501" lon="169.090451">
        <ele>319.107704</ele>
        <time>2025-02-15T10:12:38.000Z</time>
      </trkpt>
      <trkpt lat="-44.691651" lon="169.092644">
        <ele>319.251295</ele>
        <time>2025-02-15T10:13:00.000Z</time>
      </trkpt>
      <trkpt lat="-44.692175" lon="169.093771">
        <ele>320.169707</ele>
        <time>2025-02-15T10:13:11.000Z</time>
      </trkpt>
      <trkpt lat="-44.692217" lon="169.093867">
        <ele>320.331929</ele>
        <time>2025-02-15T10:13:12.000Z</time>
      </trkpt>
      <trkpt lat="-44.692495" lon="169.094587">
        <ele>321.562783</ele>
        <time>2025-02-15T10:13:18.000Z</time>
      </trkpt>
      <trkpt lat="-44.692882" lon="169.095678">
        <ele>323.362105</ele>
        <time>2025-02-15T10:13:28.000Z</time>
      </trkpt>
      <trkpt lat="-44.693016" lon="169.095947">
        <ele>323.846563</ele>
        <time>2025-02-15T10:13:31.000Z</time>
      </trkpt>
      <trkpt lat="-44.693542" lon="169.096612">
        <ele>325.284925</ele>
        <time>2025-02-15T10:13:39.000Z</time>
      </trkpt>
      <trkpt lat="-44.693735" lon="169.096837">
        <ele>325.829785</ele>
        <time>2025-02-15T10:13:42.000Z</time>
      </trkpt>
      <trkpt lat="-44.694118" lon="169.097155">
        <ele>326.747821</ele>
        <time>2025-02-15T10:13:47.000Z</time>
      </trkpt>
      <trkpt lat="-44.694237" lon="169.097201">
        <ele>327.004834</ele>
        <time>2025-02-15T10:13:48.000Z</time>
      </trkpt>
      <trkpt lat="-44.697131" lon="169.09876">
        <ele>328.400864</ele>
        <time>2025-02-15T10:14:22.000Z</time>
      </trkpt>
      <trkpt lat="-44.697515" lon="169.099003">
        <ele>328.480986</ele>
        <time>2025-02-15T10:14:27.000Z</time>
      </trkpt>
      <trkpt lat="-44.697763" lon="169.099227">
        <ele>328.600324</ele>
        <time>2025-02-15T10:14:30.000Z</time>
      </trkpt>
      <trkpt lat="-44.697884" lon="169.09938">
        <ele>328.743527</ele>
        <time>2025-02-15T10:14:32.000Z</time>
      </trkpt>
      <trkpt lat="-44.698116" lon="169.099762">
        <ele>329.029633</ele>
        <time>2025-02-15T10:14:36.000Z</time>
      </trkpt>
      <trkpt lat="-44.698553" lon="169.100711">
        <ele>329.682685</ele>
        <time>2025-02-15T10:14:45.000Z</time>
      </trkpt>
      <trkpt lat="-44.698832" lon="169.101347">
        <ele>330.156222</ele>
        <time>2025-02-15T10:14:51.000Z</time>
      </trkpt>
      <trkpt lat="-44.698936" lon="169.101574">
        <ele>330.356688</ele>
        <time>2025-02-15T10:14:53.000Z</time>
      </trkpt>
      <trkpt lat="-44.699336" lon="169.102507">
        <ele>331.200185</ele>
        <time>2025-02-15T10:15:02.000Z</time>
      </trkpt>
      <trkpt lat="-44.699725" lon="169.103483">
        <ele>331.716625</ele>
        <time>2025-02-15T10:15:11.000Z</time>
      </trkpt>
      <trkpt lat="-44.700213" lon="169.104807">
        <ele>330.046015</ele>
        <time>2025-02-15T10:15:23.000Z</time>
      </trkpt>
      <trkpt lat="-44.700565" lon="169.105759">
        <ele>328.623146</ele>
        <time>2025-02-15T10:15:31.000Z</time>
      </trkpt>
      <trkpt lat="-44.700827" lon="169.106511">
        <ele>326.891749</ele>
        <time>2025-02-15T10:15:38.000Z</time>
      </trkpt>
      <trkpt lat="-44.7009" lon="169.106766">
        <ele>326.321801</ele>
        <time>2025-02-15T10:15:40.000Z</time>
      </trkpt>
      <trkpt lat="-44.70096" lon="169.10698">
        <ele>325.830603</ele>
        <time>2025-02-15T10:15:42.000Z</time>
      </trkpt>
      <trkpt lat="-44.701017" lon="169.107562">
        <ele>324.6179</ele>
        <time>2025-02-15T10:15:47.000Z</time>
      </trkpt>
      <trkpt lat="-44.701085" lon="169.108313">
        <ele>323.128342</ele>
        <time>2025-02-15T10:15:53.000Z</time>
      </trkpt>
      <trkpt lat="-44.70115" lon="169.108937">
        <ele>321.983931</ele>
        <time>2025-02-15T10:15:58.000Z</time>
      </trkpt>
      <trkpt lat="-44.701563" lon="169.112929">
        <ele>314.322827</ele>
        <time>2025-02-15T10:16:30.000Z</time>
      </trkpt>
      <trkpt lat="-44.701537" lon="169.113152">
        <ele>313.706839</ele>
        <time>2025-02-15T10:16:32.000Z</time>
      </trkpt>
      <trkpt lat="-44.70146" lon="169.113403">
        <ele>312.933744</ele>
        <time>2025-02-15T10:16:34.000Z</time>
      </trkpt>
      <trkpt lat="-44.701064" lon="169.114396">
        <ele>309.82035</ele>
        <time>2025-02-15T10:16:43.000Z</time>
      </trkpt>
      <trkpt lat="-44.70102" lon="169.114391">
        <ele>309.675349</ele>
        <time>2025-02-15T10:16:43.000Z</time>
      </trkpt>
      <trkpt lat="-44.700979" lon="169.114434">
        <ele>309.462019</ele>
        <time>2025-02-15T10:16:44.000Z</time>
      </trkpt>
      <trkpt lat="-44.700981" lon="169.114523">
        <ele>309.227572</ele>
        <time>2025-02-15T10:16:45.000Z</time>
      </trkpt>
      <trkpt lat="-44.70101" lon="169.114544">
        <ele>309.069611</ele>
        <time>2025-02-15T10:16:45.000Z</time>
      </trkpt>
      <trkpt lat="-44.700987" lon="169.114668">
        <ele>308.726386</ele>
        <time>2025-02-15T10:16:46.000Z</time>
      </trkpt>
      <trkpt lat="-44.700892" lon="169.115964">
        <ele>304.552653</ele>
        <time>2025-02-15T10:16:56.000Z</time>
      </trkpt>
      <trkpt lat="-44.700847" lon="169.116314">
        <ele>303.279532</ele>
        <time>2025-02-15T10:16:59.000Z</time>
      </trkpt>
      <trkpt lat="-44.700697" lon="169.117743">
        <ele>298.174481</ele>
        <time>2025-02-15T10:17:10.000Z</time>
      </trkpt>
      <trkpt lat="-44.700628" lon="169.11846">
        <ele>295.854481</ele>
        <time>2025-02-15T10:17:16.000Z</time>
      </trkpt>
      <trkpt lat="-44.700488" lon="169.119604">
        <ele>292.073383</ele>
        <time>2025-02-15T10:17:25.000Z</time>
      </trkpt>
      <trkpt lat="-44.700247" lon="169.121265">
        <ele>288.150458</ele>
        <time>2025-02-15T10:17:38.000Z</time>
      </trkpt>
      <trkpt lat="-44.699833" lon="169.122893">
        <ele>285.225219</ele>
        <time>2025-02-15T10:17:52.000Z</time>
      </trkpt>
      <trkpt lat="-44.699765" lon="169.123264">
        <ele>284.85273</ele>
        <time>2025-02-15T10:17:55.000Z</time>
      </trkpt>
      <trkpt lat="-44.699741" lon="169.123546">
        <ele>284.57881</ele>
        <time>2025-02-15T10:17:57.000Z</time>
      </trkpt>
      <trkpt lat="-44.699537" lon="169.124991">
        <ele>283.133803</ele>
        <time>2025-02-15T10:18:09.000Z</time>
      </trkpt>
      <trkpt lat="-44.699322" lon="169.125863">
        <ele>282.654843</ele>
        <time>2025-02-15T10:18:16.000Z</time>
      </trkpt>
      <trkpt lat="-44.698902" lon="169.127121">
        <ele>281.997443</ele>
        <time>2025-02-15T10:18:27.000Z</time>
      </trkpt>
      <trkpt lat="-44.698826" lon="169.127381">
        <ele>281.865368</ele>
        <time>2025-02-15T10:18:29.000Z</time>
      </trkpt>
      <trkpt lat="-44.698597" lon="169.127997">
        <ele>281.70663</ele>
        <time>2025-02-15T10:18:34.000Z</time>
      </trkpt>
      <trkpt lat="-44.698152" lon="169.129056">
        <ele>281.427073</ele>
        <time>2025-02-15T10:18:44.000Z</time>
      </trkpt>
      <trkpt lat="-44.697708" lon="169.129982">
        <ele>281.204542</ele>
        <time>2025-02-15T10:18:53.000Z</time>
      </trkpt>
      <trkpt lat="-44.696812" lon="169.131616">
        <ele>280.878153</ele>
        <time>2025-02-15T10:19:09.000Z</time>
      </trkpt>
      <trkpt lat="-44.696662" lon="169.131848">
        <ele>280.913341</ele>
        <time>2025-02-15T10:19:11.000Z</time>
      </trkpt>
      <trkpt lat="-44.696658" lon="169.131864">
        <ele>280.915028</ele>
        <time>2025-02-15T10:19:11.000Z</time>
      </trkpt>
      <trkpt lat="-44.696659" lon="169.13187">
        <ele>280.915554</ele>
        <time>2025-02-15T10:19:11.000Z</time>
      </trkpt>
      <trkpt lat="-44.696646" lon="169.131867">
        <ele>280.916091</ele>
        <time>2025-02-15T10:19:11.000Z</time>
      </trkpt>
      <trkpt lat="-44.696662" lon="169.13185">
        <ele>280.917778</ele>
        <time>2025-02-15T10:19:11.000Z</time>
      </trkpt>
      <trkpt lat="-44.696809" lon="169.131611">
        <ele>280.952954</ele>
        <time>2025-02-15T10:19:13.000Z</time>
      </trkpt>
      <trkpt lat="-44.697708" lon="169.129975">
        <ele>281.197013</ele>
        <time>2025-02-15T10:19:29.000Z</time>
      </trkpt>
      <trkpt lat="-44.698148" lon="169.129052">
        <ele>281.418824</ele>
        <time>2025-02-15T10:19:38.000Z</time>
      </trkpt>
      <trkpt lat="-44.698612" lon="169.127996">
        <ele>281.675685</ele>
        <time>2025-02-15T10:19:48.000Z</time>
      </trkpt>
      <trkpt lat="-44.698828" lon="169.127376">
        <ele>281.932289</ele>
        <time>2025-02-15T10:19:53.000Z</time>
      </trkpt>
      <trkpt lat="-44.698904" lon="169.127131">
        <ele>282.037261</ele>
        <time>2025-02-15T10:19:55.000Z</time>
      </trkpt>
      <trkpt lat="-44.699308" lon="169.125861">
        <ele>282.559716</ele>
        <time>2025-02-15T10:20:06.000Z</time>
      </trkpt>
      <trkpt lat="-44.699546" lon="169.125001">
        <ele>283.267653</ele>
        <time>2025-02-15T10:20:13.000Z</time>
      </trkpt>
      <trkpt lat="-44.699729" lon="169.123543">
        <ele>284.471996</ele>
        <time>2025-02-15T10:20:25.000Z</time>
      </trkpt>
      <trkpt lat="-44.699756" lon="169.123258">
        <ele>284.731052</ele>
        <time>2025-02-15T10:20:27.000Z</time>
      </trkpt>
      <trkpt lat="-44.69983" lon="169.122888">
        <ele>285.301076</ele>
        <time>2025-02-15T10:20:30.000Z</time>
      </trkpt>
      <trkpt lat="-44.700262" lon="169.121265">
        <ele>287.915493</ele>
        <time>2025-02-15T10:20:44.000Z</time>
      </trkpt>
      <trkpt lat="-44.700488" lon="169.119607">
        <ele>292.258792</ele>
        <time>2025-02-15T10:20:57.000Z</time>
      </trkpt>
      <trkpt lat="-44.700624" lon="169.118454">
        <ele>295.592863</ele>
        <time>2025-02-15T10:21:06.000Z</time>
      </trkpt>
      <trkpt lat="-44.700702" lon="169.117755">
        <ele>298.134879</ele>
        <time>2025-02-15T10:21:12.000Z</time>
      </trkpt>
      <trkpt lat="-44.700844" lon="169.116316">
        <ele>303.362964</ele>
        <time>2025-02-15T10:21:23.000Z</time>
      </trkpt>
      <trkpt lat="-44.70089" lon="169.11596">
        <ele>304.662323</ele>
        <time>2025-02-15T10:21:26.000Z</time>
      </trkpt>
      <trkpt lat="-44.700985" lon="169.11467">
        <ele>308.653726</ele>
        <time>2025-02-15T10:21:36.000Z</time>
      </trkpt>
      <trkpt lat="-44.701017" lon="169.114554">
        <ele>309.036095</ele>
        <time>2025-02-15T10:21:37.000Z</time>
      </trkpt>
      <trkpt lat="-44.701077" lon="169.114519">
        <ele>309.287052</ele>
        <time>2025-02-15T10:21:38.000Z</time>
      </trkpt>
      <trkpt lat="-44.701089" lon="169.114479">
        <ele>309.457512</ele>
        <time>2025-02-15T10:21:38.000Z</time>
      </trkpt>
      <trkpt lat="-44.701056" lon="169.11439">
        <ele>309.73882</ele>
        <time>2025-02-15T10:21:39.000Z</time>
      </trkpt>
      <trkpt lat="-44.701459" lon="169.113409">
        <ele>313.006378</ele>
        <time>2025-02-15T10:21:48.000Z</time>
      </trkpt>
      <trkpt lat="-44.701538" lon="169.113144">
        <ele>313.601684</ele>
        <time>2025-02-15T10:21:50.000Z</time>
      </trkpt>
      <trkpt lat="-44.701573" lon="169.112925">
        <ele>314.097971</ele>
        <time>2025-02-15T10:21:52.000Z</time>
      </trkpt>
      <trkpt lat="-44.701142" lon="169.108931">
        <ele>321.956546</ele>
        <time>2025-02-15T10:22:24.000Z</time>
      </trkpt>
      <trkpt lat="-44.701086" lon="169.108301">
        <ele>323.156676</ele>
        <time>2025-02-15T10:22:29.000Z</time>
      </trkpt>
      <trkpt lat="-44.701028" lon="169.107562">
        <ele>324.675331</ele>
        <time>2025-02-15T10:22:35.000Z</time>
      </trkpt>
      <trkpt lat="-44.700949" lon="169.106981">
        <ele>325.835392</ele>
        <time>2025-02-15T10:22:40.000Z</time>
      </trkpt>
      <trkpt lat="-44.700906" lon="169.10677">
        <ele>326.305263</ele>
        <time>2025-02-15T10:22:42.000Z</time>
      </trkpt>
      <trkpt lat="-44.700828" lon="169.106516">
        <ele>326.850488</ele>
        <time>2025-02-15T10:22:44.000Z</time>
      </trkpt>
      <trkpt lat="-44.700572" lon="169.105757">
        <ele>328.350517</ele>
        <time>2025-02-15T10:22:51.000Z</time>
      </trkpt>
      <trkpt lat="-44.70023" lon="169.104807">
        <ele>330.15546</ele>
        <time>2025-02-15T10:22:59.000Z</time>
      </trkpt>
      <trkpt lat="-44.699729" lon="169.103481">
        <ele>331.561234</ele>
        <time>2025-02-15T10:23:11.000Z</time>
      </trkpt>
      <trkpt lat="-44.699333" lon="169.102513">
        <ele>331.072174</ele>
        <time>2025-02-15T10:23:20.000Z</time>
      </trkpt>
      <trkpt lat="-44.698922" lon="169.101568">
        <ele>330.509146</ele>
        <time>2025-02-15T10:23:29.000Z</time>
      </trkpt>
      <trkpt lat="-44.698837" lon="169.101342">
        <ele>330.299193</ele>
        <time>2025-02-15T10:23:31.000Z</time>
      </trkpt>
      <trkpt lat="-44.698555" lon="169.100705">
        <ele>329.705433</ele>
        <time>2025-02-15T10:23:37.000Z</time>
      </trkpt>
      <trkpt lat="-44.698123" lon="169.099773">
        <ele>328.810946</ele>
        <time>2025-02-15T10:23:46.000Z</time>
      </trkpt>
      <trkpt lat="-44.697897" lon="169.099388">
        <ele>328.621188</ele>
        <time>2025-02-15T10:23:50.000Z</time>
      </trkpt>
      <trkpt lat="-44.697764" lon="169.099232">
        <ele>328.590666</ele>
        <time>2025-02-15T10:23:52.000Z</time>
      </trkpt>
      <trkpt lat="-44.697527" lon="169.098993">
        <ele>328.540922</ele>
        <time>2025-02-15T10:23:55.000Z</time>
      </trkpt>
      <trkpt lat="-44.697129" lon="169.098756">
        <ele>328.466786</ele>
        <time>2025-02-15T10:24:00.000Z</time>
      </trkpt>
      <trkpt lat="-44.694241" lon="169.097212">
        <ele>326.693901</ele>
        <time>2025-02-15T10:24:34.000Z</time>
      </trkpt>
      <trkpt lat="-44.694125" lon="169.097152">
        <ele>326.492005</ele>
        <time>2025-02-15T10:24:35.000Z</time>
      </trkpt>
      <trkpt lat="-44.693743" lon="169.096831">
        <ele>325.770871</ele>
        <time>2025-02-15T10:24:40.000Z</time>
      </trkpt>
      <trkpt lat="-44.69354" lon="169.096606">
        <ele>325.34287</ele>
        <time>2025-02-15T10:24:43.000Z</time>
      </trkpt>
      <trkpt lat="-44.693015" lon="169.095944">
        <ele>323.980732</ele>
        <time>2025-02-15T10:24:51.000Z</time>
      </trkpt>
      <trkpt lat="-44.692891" lon="169.095675">
        <ele>323.435486</ele>
        <time>2025-02-15T10:24:54.000Z</time>
      </trkpt>
      <trkpt lat="-44.692495" lon="169.094601">
        <ele>321.428747</ele>
        <time>2025-02-15T10:25:04.000Z</time>
      </trkpt>
      <trkpt lat="-44.692204" lon="169.093872">
        <ele>320.327672</ele>
        <time>2025-02-15T10:25:11.000Z</time>
      </trkpt>
      <trkpt lat="-44.692174" lon="169.093787">
        <ele>320.247569</ele>
        <time>2025-02-15T10:25:12.000Z</time>
      </trkpt>
      <trkpt lat="-44.691646" lon="169.092631">
        <ele>319.244491</ele>
        <time>2025-02-15T10:25:23.000Z</time>
      </trkpt>
      <trkpt lat="-44.69049" lon="169.09046">
        <ele>319.006811</ele>
        <time>2025-02-15T10:25:44.000Z</time>
      </trkpt>
      <trkpt lat="-44.688447" lon="169.086694">
        <ele>323.830271</ele>
        <time>2025-02-15T10:26:21.000Z</time>
      </trkpt>
      <trkpt lat="-44.68751" lon="169.085179">
        <ele>328.760681</ele>
        <time>2025-02-15T10:26:37.000Z</time>
      </trkpt>
      <trkpt lat="-44.686507" lon="169.083628">
        <ele>335.148925</ele>
        <time>2025-02-15T10:26:54.000Z</time>
      </trkpt>
      <trkpt lat="-44.685474" lon="169.082527">
        <ele>340.433401</ele>
        <time>2025-02-15T10:27:08.000Z</time>
      </trkpt>
      <trkpt lat="-44.683013" lon="169.080781">
        <ele>346.560458</ele>
        <time>2025-02-15T10:27:39.000Z</time>
      </trkpt>
      <trkpt lat="-44.680775" lon="169.078895">
        <ele>347.147316</ele>
        <time>2025-02-15T10:28:08.000Z</time>
      </trkpt>
      <trkpt lat="-44.677285" lon="169.075759">
        <ele>334.87057</ele>
        <time>2025-02-15T10:28:54.000Z</time>
      </trkpt>
      <trkpt lat="-44.677169" lon="169.075635">
        <ele>334.553475</ele>
        <time>2025-02-15T10:28:56.000Z</time>
      </trkpt>
      <trkpt lat="-44.676714" lon="169.075175">
        <ele>333.395618</ele>
        <time>2025-02-15T10:29:02.000Z</time>
      </trkpt>
      <trkpt lat="-44.675092" lon="169.073284">
        <ele>330.292847</ele>
        <time>2025-02-15T10:29:25.000Z</time>
      </trkpt>
      <trkpt lat="-44.67434" lon="169.072501">
        <ele>329.238026</ele>
        <time>2025-02-15T10:29:35.000Z</time>
      </trkpt>
      <trkpt lat="-44.673972" lon="169.072269">
        <ele>328.801242</ele>
        <time>2025-02-15T10:29:39.000Z</time>
      </trkpt>
      <trkpt lat="-44.673332" lon="169.07206">
        <ele>328.104764</ele>
        <time>2025-02-15T10:29:46.000Z</time>
      </trkpt>
      <trkpt lat="-44.672746" lon="169.071897">
        <ele>328.0205</ele>
        <time>2025-02-15T10:29:53.000Z</time>
      </trkpt>
      <trkpt lat="-44.671135" lon="169.071348">
        <ele>327.988363</ele>
        <time>2025-02-15T10:30:11.000Z</time>
      </trkpt>
      <trkpt lat="-44.670835" lon="169.071144">
        <ele>327.919386</ele>
        <time>2025-02-15T10:30:15.000Z</time>
      </trkpt>
      <trkpt lat="-44.670594" lon="169.07087">
        <ele>327.857494</ele>
        <time>2025-02-15T10:30:18.000Z</time>
      </trkpt>
      <trkpt lat="-44.669346" lon="169.069128">
        <ele>327.864929</ele>
        <time>2025-02-15T10:30:38.000Z</time>
      </trkpt>
      <trkpt lat="-44.668903" lon="169.068414">
        <ele>327.982896</ele>
        <time>2025-02-15T10:30:45.000Z</time>
      </trkpt>
      <trkpt lat="-44.668279" lon="169.067241">
        <ele>328.444241</ele>
        <time>2025-02-15T10:30:57.000Z</time>
      </trkpt>
      <trkpt lat="-44.668064" lon="169.066946">
        <ele>328.586865</ele>
        <time>2025-02-15T10:31:00.000Z</time>
      </trkpt>
      <trkpt lat="-44.666464" lon="169.065196">
        <ele>328.297248</ele>
        <time>2025-02-15T10:31:23.000Z</time>
      </trkpt>
      <trkpt lat="-44.665826" lon="169.064335">
        <ele>327.196617</ele>
        <time>2025-02-15T10:31:33.000Z</time>
      </trkpt>
      <trkpt lat="-44.664647" lon="169.062431">
        <ele>322.601659</ele>
        <time>2025-02-15T10:31:53.000Z</time>
      </trkpt>
      <trkpt lat="-44.664254" lon="169.061665">
        <ele>319.730161</ele>
        <time>2025-02-15T10:32:00.000Z</time>
      </trkpt>
      <trkpt lat="-44.663879" lon="169.060822">
        <ele>316.728903</ele>
        <time>2025-02-15T10:32:08.000Z</time>
      </trkpt>
      <trkpt lat="-44.663593" lon="169.059993">
        <ele>314.470468</ele>
        <time>2025-02-15T10:32:15.000Z</time>
      </trkpt>
      <trkpt lat="-44.662937" lon="169.057572">
        <ele>312.106991</ele>
        <time>2025-02-15T10:32:35.000Z</time>
      </trkpt>
      <trkpt lat="-44.662778" lon="169.056856">
        <ele>313.040065</ele>
        <time>2025-02-15T10:32:41.000Z</time>
      </trkpt>
      <trkpt lat="-44.662793" lon="169.056182">
        <ele>313.862245</ele>
        <time>2025-02-15T10:32:46.000Z</time>
      </trkpt>
      <trkpt lat="-44.66289" lon="169.054837">
        <ele>315.112238</ele>
        <time>2025-02-15T10:32:57.000Z</time>
      </trkpt>
      <trkpt lat="-44.662884" lon="169.054411">
        <ele>315.492414</ele>
        <time>2025-02-15T10:33:00.000Z</time>
      </trkpt>
      <trkpt lat="-44.662636" lon="169.053256">
        <ele>315.176053</ele>
        <time>2025-02-15T10:33:10.000Z</time>
      </trkpt>
      <trkpt lat="-44.662594" lon="169.052949">
        <ele>314.424481</ele>
        <time>2025-02-15T10:33:12.000Z</time>
      </trkpt>
      <trkpt lat="-44.662619" lon="169.052597">
        <ele>313.561668</ele>
        <time>2025-02-15T10:33:15.000Z</time>
      </trkpt>
      <trkpt lat="-44.66312" lon="169.048881">
        <ele>305.188111</ele>
        <time>2025-02-15T10:33:45.000Z</time>
      </trkpt>
      <trkpt lat="-44.663324" lon="169.048211">
        <ele>304.639338</ele>
        <time>2025-02-15T10:33:51.000Z</time>
      </trkpt>
      <trkpt lat="-44.663617" lon="169.047595">
        <ele>304.407901</ele>
        <time>2025-02-15T10:33:57.000Z</time>
      </trkpt>
      <trkpt lat="-44.664258" lon="169.046574">
        <ele>304.066707</ele>
        <time>2025-02-15T10:34:08.000Z</time>
      </trkpt>
      <trkpt lat="-44.664434" lon="169.046165">
        <ele>304.254597</ele>
        <time>2025-02-15T10:34:12.000Z</time>
      </trkpt>
      <trkpt lat="-44.664643" lon="169.04569">
        <ele>304.4604</ele>
        <time>2025-02-15T10:34:16.000Z</time>
      </trkpt>
      <trkpt lat="-44.66481" lon="169.044804">
        <ele>304.808719</ele>
        <time>2025-02-15T10:34:23.000Z</time>
      </trkpt>
      <trkpt lat="-44.664861" lon="169.044377">
        <ele>304.973253</ele>
        <time>2025-02-15T10:34:26.000Z</time>
      </trkpt>
      <trkpt lat="-44.664808" lon="169.044042">
        <ele>304.658818</ele>
        <time>2025-02-15T10:34:29.000Z</time>
      </trkpt>
      <trkpt lat="-44.664717" lon="169.043709">
        <ele>304.295262</ele>
        <time>2025-02-15T10:34:32.000Z</time>
      </trkpt>
      <trkpt lat="-44.664141" lon="169.042413">
        <ele>302.758585</ele>
        <time>2025-02-15T10:34:44.000Z</time>
      </trkpt>
      <trkpt lat="-44.664062" lon="169.04199">
        <ele>302.289893</ele>
        <time>2025-02-15T10:34:47.000Z</time>
      </trkpt>
      <trkpt lat="-44.664028" lon="169.041545">
        <ele>301.695783</ele>
        <time>2025-02-15T10:34:51.000Z</time>
      </trkpt>
      <trkpt lat="-44.664088" lon="169.041198">
        <ele>301.217528</ele>
        <time>2025-02-15T10:34:54.000Z</time>
      </trkpt>
      <trkpt lat="-44.66422" lon="169.040746">
        <ele>300.59103</ele>
        <time>2025-02-15T10:34:58.000Z</time>
      </trkpt>
      <trkpt lat="-44.664343" lon="169.04054">
        <ele>300.234346</ele>
        <time>2025-02-15T10:35:00.000Z</time>
      </trkpt>
      <trkpt lat="-44.664739" lon="169.039887">
        <ele>299.106604</ele>
        <time>2025-02-15T10:35:07.000Z</time>
      </trkpt>
      <trkpt lat="-44.665825" lon="169.038414">
        <ele>296.360812</ele>
        <time>2025-02-15T10:35:24.000Z</time>
      </trkpt>
      <trkpt lat="-44.66602" lon="169.038047">
        <ele>295.787441</ele>
        <time>2025-02-15T10:35:28.000Z</time>
      </trkpt>
      <trkpt lat="-44.66651" lon="169.036942">
        <ele>294.522294</ele>
        <time>2025-02-15T10:35:38.000Z</time>
      </trkpt>
      <trkpt lat="-44.666643" lon="169.03672">
        <ele>294.244362</ele>
        <time>2025-02-15T10:35:40.000Z</time>
      </trkpt>
      <trkpt lat="-44.668291" lon="169.034564">
        <ele>291.293397</ele>
        <time>2025-02-15T10:36:05.000Z</time>
      </trkpt>
      <trkpt lat="-44.668827" lon="169.033959">
        <ele>290.789282</ele>
        <time>2025-02-15T10:36:13.000Z</time>
      </trkpt>
      <trkpt lat="-44.670081" lon="169.033092">
        <ele>290.374615</ele>
        <time>2025-02-15T10:36:29.000Z</time>
      </trkpt>
      <trkpt lat="-44.670781" lon="169.032455">
        <ele>292.207078</ele>
        <time>2025-02-15T10:36:38.000Z</time>
      </trkpt>
      <trkpt lat="-44.672407" lon="169.030456">
        <ele>298.14445</ele>
        <time>2025-02-15T10:37:02.000Z</time>
      </trkpt>
      <trkpt lat="-44.672963" lon="169.029861">
        <ele>299.592558</ele>
        <time>2025-02-15T10:37:10.000Z</time>
      </trkpt>
      <trkpt lat="-44.673306" lon="169.029094">
        <ele>299.418721</ele>
        <time>2025-02-15T10:37:17.000Z</time>
      </trkpt>
      <trkpt lat="-44.673727" lon="169.02851">
        <ele>299.254782</ele>
        <time>2025-02-15T10:37:24.000Z</time>
      </trkpt>
      <trkpt lat="-44.673857" lon="169.028226">
        <ele>299.190839</ele>
        <time>2025-02-15T10:37:27.000Z</time>
      </trkpt>
      <trkpt lat="-44.673907" lon="169.027926">
        <ele>298.873058</ele>
        <time>2025-02-15T10:37:29.000Z</time>
      </trkpt>
      <trkpt lat="-44.674011" lon="169.026716">
        <ele>296.423279</ele>
        <time>2025-02-15T10:37:39.000Z</time>
      </trkpt>
      <trkpt lat="-44.674134" lon="169.026147">
        <ele>295.267408</ele>
        <time>2025-02-15T10:37:44.000Z</time>
      </trkpt>
      <trkpt lat="-44.674327" lon="169.025716">
        <ele>294.232701</ele>
        <time>2025-02-15T10:37:48.000Z</time>
      </trkpt>
      <trkpt lat="-44.674656" lon="169.025375">
        <ele>293.268772</ele>
        <time>2025-02-15T10:37:53.000Z</time>
      </trkpt>
      <trkpt lat="-44.675011" lon="169.024764">
        <ele>291.927628</ele>
        <time>2025-02-15T10:37:59.000Z</time>
      </trkpt>
      <trkpt lat="-44.675168" lon="169.024224">
        <ele>290.933678</ele>
        <time>2025-02-15T10:38:04.000Z</time>
      </trkpt>
      <trkpt lat="-44.675276" lon="169.02359">
        <ele>289.821645</ele>
        <time>2025-02-15T10:38:09.000Z</time>
      </trkpt>
      <trkpt lat="-44.675355" lon="169.022748">
        <ele>288.828287</ele>
        <time>2025-02-15T10:38:16.000Z</time>
      </trkpt>
      <trkpt lat="-44.675361" lon="169.022209">
        <ele>288.207232</ele>
        <time>2025-02-15T10:38:20.000Z</time>
      </trkpt>
      <trkpt lat="-44.675179" lon="169.021089">
        <ele>286.907709</ele>
        <time>2025-02-15T10:38:29.000Z</time>
      </trkpt>
      <trkpt lat="-44.674795" lon="169.019063">
        <ele>286.394821</ele>
        <time>2025-02-15T10:38:46.000Z</time>
      </trkpt>
      <trkpt lat="-44.674759" lon="169.018837">
        <ele>286.337952</ele>
        <time>2025-02-15T10:38:48.000Z</time>
      </trkpt>
      <trkpt lat="-44.67474" lon="169.01855">
        <ele>286.307571</ele>
        <time>2025-02-15T10:38:50.000Z</time>
      </trkpt>
      <trkpt lat="-44.674632" lon="169.016238">
        <ele>286.694178</ele>
        <time>2025-02-15T10:39:08.000Z</time>
      </trkpt>
      <trkpt lat="-44.674518" lon="169.014619">
        <ele>286.808389</ele>
        <time>2025-02-15T10:39:21.000Z</time>
      </trkpt>
      <trkpt lat="-44.674456" lon="169.014374">
        <ele>286.825583</ele>
        <time>2025-02-15T10:39:23.000Z</time>
      </trkpt>
      <trkpt lat="-44.674344" lon="169.014003">
        <ele>286.850675</ele>
        <time>2025-02-15T10:39:26.000Z</time>
      </trkpt>
      <trkpt lat="-44.67413" lon="169.013601">
        <ele>286.833622</ele>
        <time>2025-02-15T10:39:30.000Z</time>
      </trkpt>
      <trkpt lat="-44.672391" lon="169.010674">
        <ele>285.613048</ele>
        <time>2025-02-15T10:40:00.000Z</time>
      </trkpt>
      <trkpt lat="-44.67202" lon="169.010088">
        <ele>285.289605</ele>
        <time>2025-02-15T10:40:06.000Z</time>
      </trkpt>
      <trkpt lat="-44.671637" lon="169.009597">
        <ele>285.102844</ele>
        <time>2025-02-15T10:40:12.000Z</time>
      </trkpt>
      <trkpt lat="-44.670812" lon="169.009267">
        <ele>284.952821</ele>
        <time>2025-02-15T10:40:22.000Z</time>
      </trkpt>
      <trkpt lat="-44.670005" lon="169.008931">
        <ele>285.147561</ele>
        <time>2025-02-15T10:40:31.000Z</time>
      </trkpt>
      <trkpt lat="-44.669182" lon="169.00853">
        <ele>286.417952</ele>
        <time>2025-02-15T10:40:41.000Z</time>
      </trkpt>
      <trkpt lat="-44.668951" lon="169.008196">
        <ele>286.925147</ele>
        <time>2025-02-15T10:40:45.000Z</time>
      </trkpt>
      <trkpt lat="-44.668769" lon="169.007734">
        <ele>287.487865</ele>
        <time>2025-02-15T10:40:49.000Z</time>
      </trkpt>
      <trkpt lat="-44.668693" lon="169.007227">
        <ele>288.36517</ele>
        <time>2025-02-15T10:40:53.000Z</time>
      </trkpt>
      <trkpt lat="-44.668767" lon="169.006738">
        <ele>289.224905</ele>
        <time>2025-02-15T10:40:57.000Z</time>
      </trkpt>
      <trkpt lat="-44.669293" lon="169.005789">
        <ele>291.294967</ele>
        <time>2025-02-15T10:41:07.000Z</time>
      </trkpt>
      <trkpt lat="-44.669636" lon="169.005095">
        <ele>292.280046</ele>
        <time>2025-02-15T10:41:14.000Z</time>
      </trkpt>
      <trkpt lat="-44.669727" lon="169.004588">
        <ele>292.697701</ele>
        <time>2025-02-15T10:41:18.000Z</time>
      </trkpt>
      <trkpt lat="-44.669752" lon="169.004168">
        <ele>293.033186</ele>
        <time>2025-02-15T10:41:21.000Z</time>
      </trkpt>
      <trkpt lat="-44.6697" lon="169.003757">
        <ele>293.368322</ele>
        <time>2025-02-15T10:41:24.000Z</time>
      </trkpt>
      <trkpt lat="-44.669631" lon="169.003104">
        <ele>293.890676</ele>
        <time>2025-02-15T10:41:29.000Z</time>
      </trkpt>
      <trkpt lat="-44.66911" lon="168.998264">
        <ele>295.793037</ele>
        <time>2025-02-15T10:42:08.000Z</time>
      </trkpt>
      <trkpt lat="-44.669019" lon="168.997575">
        <ele>296.575753</ele>
        <time>2025-02-15T10:42:14.000Z</time>
      </trkpt>
      <trkpt lat="-44.668941" lon="168.997106">
        <ele>297.216576</ele>
        <time>2025-02-15T10:42:18.000Z</time>
      </trkpt>
      <trkpt lat="-44.668879" lon="168.996887">
        <ele>297.520528</ele>
        <time>2025-02-15T10:42:20.000Z</time>
      </trkpt>
      <trkpt lat="-44.668511" lon="168.996265">
        <ele>298.557992</ele>
        <time>2025-02-15T10:42:26.000Z</time>
      </trkpt>
      <trkpt lat="-44.668285" lon="168.996027">
        <ele>299.111277</ele>
        <time>2025-02-15T10:42:29.000Z</time>
      </trkpt>
      <trkpt lat="-44.668139" lon="168.995886">
        <ele>299.493238</ele>
        <time>2025-02-15T10:42:31.000Z</time>
      </trkpt>
      <trkpt lat="-44.667895" lon="168.995697">
        <ele>300.106774</ele>
        <time>2025-02-15T10:42:34.000Z</time>
      </trkpt>
      <trkpt lat="-44.667651" lon="168.995588">
        <ele>300.664836</ele>
        <time>2025-02-15T10:42:37.000Z</time>
      </trkpt>
      <trkpt lat="-44.667497" lon="168.995448">
        <ele>301.084699</ele>
        <time>2025-02-15T10:42:39.000Z</time>
      </trkpt>
      <trkpt lat="-44.666907" lon="168.994423">
        <ele>303.152231</ele>
        <time>2025-02-15T10:42:49.000Z</time>
      </trkpt>
      <trkpt lat="-44.66667" lon="168.994154">
        <ele>303.069316</ele>
        <time>2025-02-15T10:42:52.000Z</time>
      </trkpt>
      <trkpt lat="-44.666276" lon="168.993922">
        <ele>302.895006</ele>
        <time>2025-02-15T10:42:57.000Z</time>
      </trkpt>
      <trkpt lat="-44.666081" lon="168.993737">
        <ele>302.796597</ele>
        <time>2025-02-15T10:43:00.000Z</time>
      </trkpt>
      <trkpt lat="-44.664954" lon="168.991605">
        <ele>300.098499</ele>
        <time>2025-02-15T10:43:21.000Z</time>
      </trkpt>
      <trkpt lat="-44.663778" lon="168.989227">
        <ele>296.188667</ele>
        <time>2025-02-15T10:43:44.000Z</time>
      </trkpt>
      <trkpt lat="-44.663617" lon="168.988945">
        <ele>295.758219</ele>
        <time>2025-02-15T10:43:47.000Z</time>
      </trkpt>
      <trkpt lat="-44.663498" lon="168.988802">
        <ele>295.47098</ele>
        <time>2025-02-15T10:43:49.000Z</time>
      </trkpt>
      <trkpt lat="-44.663629" lon="168.988946">
        <ele>295.54252</ele>
        <time>2025-02-15T10:43:51.000Z</time>
      </trkpt>
      <trkpt lat="-44.663786" lon="168.989235">
        <ele>296.022006</ele>
        <time>2025-02-15T10:43:54.000Z</time>
      </trkpt>
      <trkpt lat="-44.664966" lon="168.99161">
        <ele>300.101733</ele>
        <time>2025-02-15T10:44:17.000Z</time>
      </trkpt>
      <trkpt lat="-44.666084" lon="168.993747">
        <ele>302.813856</ele>
        <time>2025-02-15T10:44:38.000Z</time>
      </trkpt>
      <trkpt lat="-44.666276" lon="168.993926">
        <ele>302.847959</ele>
        <time>2025-02-15T10:44:41.000Z</time>
      </trkpt>
      <trkpt lat="-44.666672" lon="168.994138">
        <ele>302.908369</ele>
        <time>2025-02-15T10:44:46.000Z</time>
      </trkpt>
      <trkpt lat="-44.666904" lon="168.994428">
        <ele>302.953632</ele>
        <time>2025-02-15T10:44:49.000Z</time>
      </trkpt>
      <trkpt lat="-44.667488" lon="168.995436">
        <ele>301.119245</ele>
        <time>2025-02-15T10:44:59.000Z</time>
      </trkpt>
      <trkpt lat="-44.667653" lon="168.995596">
        <ele>300.686474</ele>
        <time>2025-02-15T10:45:01.000Z</time>
      </trkpt>
      <trkpt lat="-44.667888" lon="168.995698">
        <ele>300.111218</ele>
        <time>2025-02-15T10:45:04.000Z</time>
      </trkpt>
      <trkpt lat="-44.668134" lon="168.995871">
        <ele>299.47881</ele>
        <time>2025-02-15T10:45:07.000Z</time>
      </trkpt>
      <trkpt lat="-44.668285" lon="168.996031">
        <ele>299.068702</ele>
        <time>2025-02-15T10:45:09.000Z</time>
      </trkpt>
      <trkpt lat="-44.668515" lon="168.996267">
        <ele>298.494535</ele>
        <time>2025-02-15T10:45:12.000Z</time>
      </trkpt>
      <trkpt lat="-44.668866" lon="168.996892">
        <ele>297.520654</ele>
        <time>2025-02-15T10:45:18.000Z</time>
      </trkpt>
      <trkpt lat="-44.668937" lon="168.997095">
        <ele>297.23533</ele>
        <time>2025-02-15T10:45:20.000Z</time>
      </trkpt>
      <trkpt lat="-44.669007" lon="168.997576">
        <ele>296.633773</ele>
        <time>2025-02-15T10:45:24.000Z</time>
      </trkpt>
      <trkpt lat="-44.669096" lon="168.998263">
        <ele>295.767182</ele>
        <time>2025-02-15T10:45:30.000Z</time>
      </trkpt>
      <trkpt lat="-44.669641" lon="169.003108">
        <ele>293.874791</ele>
        <time>2025-02-15T10:46:09.000Z</time>
      </trkpt>
      <trkpt lat="-44.66971" lon="169.003749">
        <ele>293.407836</ele>
        <time>2025-02-15T10:46:14.000Z</time>
      </trkpt>
      <trkpt lat="-44.669756" lon="169.004155">
        <ele>293.04005</ele>
        <time>2025-02-15T10:46:17.000Z</time>
      </trkpt>
      <trkpt lat="-44.669721" lon="169.004587">
        <ele>292.671901</ele>
        <time>2025-02-15T10:46:20.000Z</time>
      </trkpt>
      <trkpt lat="-44.669633" lon="169.005092">
        <ele>292.21357</ele>
        <time>2025-02-15T10:46:24.000Z</time>
      </trkpt>
      <trkpt lat="-44.669302" lon="169.005778">
        <ele>291.352073</ele>
        <time>2025-02-15T10:46:31.000Z</time>
      </trkpt>
      <trkpt lat="-44.668775" lon="169.006743">
        <ele>289.262508</ele>
        <time>2025-02-15T10:46:41.000Z</time>
      </trkpt>
      <trkpt lat="-44.6687" lon="169.007225">
        <ele>288.394691</ele>
        <time>2025-02-15T10:46:45.000Z</time>
      </trkpt>
      <trkpt lat="-44.668764" lon="169.007736">
        <ele>287.498148</ele>
        <time>2025-02-15T10:46:49.000Z</time>
      </trkpt>
      <trkpt lat="-44.668945" lon="169.0082">
        <ele>286.848058</ele>
        <time>2025-02-15T10:46:53.000Z</time>
      </trkpt>
      <trkpt lat="-44.669191" lon="169.00854">
        <ele>286.390273</ele>
        <time>2025-02-15T10:46:57.000Z</time>
      </trkpt>
      <trkpt lat="-44.669997" lon="169.008939">
        <ele>285.243649</ele>
        <time>2025-02-15T10:47:07.000Z</time>
      </trkpt>
      <trkpt lat="-44.670811" lon="169.009263">
        <ele>284.909701</ele>
        <time>2025-02-15T10:47:16.000Z</time>
      </trkpt>
      <trkpt lat="-44.671638" lon="169.009605">
        <ele>285.131</ele>
        <time>2025-02-15T10:47:26.000Z</time>
      </trkpt>
      <trkpt lat="-44.672031" lon="169.010102">
        <ele>285.296205</ele>
        <time>2025-02-15T10:47:32.000Z</time>
      </trkpt>
      <trkpt lat="-44.672407" lon="169.010667">
        <ele>285.609339</ele>
        <time>2025-02-15T10:47:38.000Z</time>
      </trkpt>
      <trkpt lat="-44.674146" lon="169.013599">
        <ele>286.812303</ele>
        <time>2025-02-15T10:48:08.000Z</time>
      </trkpt>
      <trkpt lat="-44.674356" lon="169.014007">
        <ele>286.884645</ele>
        <time>2025-02-15T10:48:12.000Z</time>
      </trkpt>
      <trkpt lat="-44.674465" lon="169.014376">
        <ele>286.849433</ele>
        <time>2025-02-15T10:48:15.000Z</time>
      </trkpt>
      <trkpt lat="-44.67453" lon="169.01463">
        <ele>286.825327</ele>
        <time>2025-02-15T10:48:17.000Z</time>
      </trkpt>
      <trkpt lat="-44.674632" lon="169.016231">
        <ele>286.680771</ele>
        <time>2025-02-15T10:48:30.000Z</time>
      </trkpt>
      <trkpt lat="-44.674743" lon="169.018558">
        <ele>286.33529</ele>
        <time>2025-02-15T10:48:48.000Z</time>
      </trkpt>
      <trkpt lat="-44.674744" lon="169.01885">
        <ele>286.291687</ele>
        <time>2025-02-15T10:48:50.000Z</time>
      </trkpt>
      <trkpt lat="-44.674798" lon="169.019073">
        <ele>286.357681</ele>
        <time>2025-02-15T10:48:52.000Z</time>
      </trkpt>
      <trkpt lat="-44.675179" lon="169.021095">
        <ele>286.975556</ele>
        <time>2025-02-15T10:49:09.000Z</time>
      </trkpt>
      <trkpt lat="-44.675361" lon="169.022195">
        <ele>288.174073</ele>
        <time>2025-02-15T10:49:18.000Z</time>
      </trkpt>
      <trkpt lat="-44.675352" lon="169.022735">
        <ele>288.833803</ele>
        <time>2025-02-15T10:49:22.000Z</time>
      </trkpt>
      <trkpt lat="-44.675269" lon="169.023594">
        <ele>289.888014</ele>
        <time>2025-02-15T10:49:29.000Z</time>
      </trkpt>
      <trkpt lat="-44.675168" lon="169.024232">
        <ele>290.92056</ele>
        <time>2025-02-15T10:49:34.000Z</time>
      </trkpt>
      <trkpt lat="-44.675013" lon="169.024762">
        <ele>291.932142</ele>
        <time>2025-02-15T10:49:39.000Z</time>
      </trkpt>
      <trkpt lat="-44.674656" lon="169.02537">
        <ele>293.297041</ele>
        <time>2025-02-15T10:49:45.000Z</time>
      </trkpt>
      <trkpt lat="-44.674328" lon="169.025721">
        <ele>294.261271</ele>
        <time>2025-02-15T10:49:50.000Z</time>
      </trkpt>
      <trkpt lat="-44.674137" lon="169.026162">
        <ele>295.247583</ele>
        <time>2025-02-15T10:49:54.000Z</time>
      </trkpt>
      <trkpt lat="-44.674028" lon="169.026701">
        <ele>296.38561</ele>
        <time>2025-02-15T10:49:58.000Z</time>
      </trkpt>
      <trkpt lat="-44.673909" lon="169.027927">
        <ele>298.797497</ele>
        <time>2025-02-15T10:50:08.000Z</time>
      </trkpt>
      <trkpt lat="-44.67385" lon="169.028222">
        <ele>299.383096</ele>
        <time>2025-02-15T10:50:10.000Z</time>
      </trkpt>
      <trkpt lat="-44.67373" lon="169.028505">
        <ele>299.453434</ele>
        <time>2025-02-15T10:50:13.000Z</time>
      </trkpt>
      <trkpt lat="-44.673307" lon="169.029111">
        <ele>299.414935</ele>
        <time>2025-02-15T10:50:20.000Z</time>
      </trkpt>
      <trkpt lat="-44.672975" lon="169.029872">
        <ele>299.374099</ele>
        <time>2025-02-15T10:50:27.000Z</time>
      </trkpt>
      <trkpt lat="-44.672395" lon="169.030442">
        <ele>298.242191</ele>
        <time>2025-02-15T10:50:35.000Z</time>
      </trkpt>
      <trkpt lat="-44.670781" lon="169.032457">
        <ele>292.207733</ele>
        <time>2025-02-15T10:50:59.000Z</time>
      </trkpt>
      <trkpt lat="-44.670086" lon="169.033096">
        <ele>290.567155</ele>
        <time>2025-02-15T10:51:08.000Z</time>
      </trkpt>
      <trkpt lat="-44.668835" lon="169.033944">
        <ele>290.799439</ele>
        <time>2025-02-15T10:51:23.000Z</time>
      </trkpt>
      <trkpt lat="-44.668281" lon="169.034549">
        <ele>291.280907</ele>
        <time>2025-02-15T10:51:31.000Z</time>
      </trkpt>
      <trkpt lat="-44.666641" lon="169.036721">
        <ele>294.24528</ele>
        <time>2025-02-15T10:51:56.000Z</time>
      </trkpt>
      <trkpt lat="-44.666516" lon="169.036941">
        <ele>294.5297</ele>
        <time>2025-02-15T10:51:58.000Z</time>
      </trkpt>
      <trkpt lat="-44.666024" lon="169.038052">
        <ele>295.824393</ele>
        <time>2025-02-15T10:52:08.000Z</time>
      </trkpt>
      <trkpt lat="-44.665818" lon="169.038415">
        <ele>296.340914</ele>
        <time>2025-02-15T10:52:12.000Z</time>
      </trkpt>
      <trkpt lat="-44.664728" lon="169.039876">
        <ele>299.085532</ele>
        <time>2025-02-15T10:52:29.000Z</time>
      </trkpt>
      <trkpt lat="-44.664343" lon="169.040541">
        <ele>300.222792</ele>
        <time>2025-02-15T10:52:36.000Z</time>
      </trkpt>
      <trkpt lat="-44.664218" lon="169.040753">
        <ele>300.585305</ele>
        <time>2025-02-15T10:52:38.000Z</time>
      </trkpt>
      <trkpt lat="-44.664089" lon="169.041199">
        <ele>301.222034</ele>
        <time>2025-02-15T10:52:42.000Z</time>
      </trkpt>
      <trkpt lat="-44.664024" lon="169.041542">
        <ele>301.708111</ele>
        <time>2025-02-15T10:52:45.000Z</time>
      </trkpt>
      <trkpt lat="-44.664059" lon="169.042001">
        <ele>302.311916</ele>
        <time>2025-02-15T10:52:49.000Z</time>
      </trkpt>
      <trkpt lat="-44.664127" lon="169.042408">
        <ele>302.836316</ele>
        <time>2025-02-15T10:52:52.000Z</time>
      </trkpt>
      <trkpt lat="-44.664716" lon="169.043713">
        <ele>304.232648</ele>
        <time>2025-02-15T10:53:04.000Z</time>
      </trkpt>
      <trkpt lat="-44.664801" lon="169.044047">
        <ele>304.562996</ele>
        <time>2025-02-15T10:53:07.000Z</time>
      </trkpt>
      <trkpt lat="-44.664856" lon="169.044373">
        <ele>304.867444</ele>
        <time>2025-02-15T10:53:10.000Z</time>
      </trkpt>
      <trkpt lat="-44.664822" lon="169.0448">
        <ele>304.919459</ele>
        <time>2025-02-15T10:53:13.000Z</time>
      </trkpt>
      <trkpt lat="-44.664641" lon="169.045692">
        <ele>304.50612</ele>
        <time>2025-02-15T10:53:20.000Z</time>
      </trkpt>
      <trkpt lat="-44.664443" lon="169.046155">
        <ele>304.26189</ele>
        <time>2025-02-15T10:53:24.000Z</time>
      </trkpt>
      <trkpt lat="-44.664258" lon="169.046585">
        <ele>304.038928</ele>
        <time>2025-02-15T10:53:28.000Z</time>
      </trkpt>
      <trkpt lat="-44.66362" lon="169.047597">
        <ele>304.403034</ele>
        <time>2025-02-15T10:53:39.000Z</time>
      </trkpt>
      <trkpt lat="-44.663319" lon="169.048219">
        <ele>304.763293</ele>
        <time>2025-02-15T10:53:45.000Z</time>
      </trkpt>
      <trkpt lat="-44.663129" lon="169.048894">
        <ele>305.11237</ele>
        <time>2025-02-15T10:53:51.000Z</time>
      </trkpt>
      <trkpt lat="-44.662612" lon="169.052595">
        <ele>313.462157</ele>
        <time>2025-02-15T10:54:21.000Z</time>
      </trkpt>
      <trkpt lat="-44.662588" lon="169.052958">
        <ele>314.302509</ele>
        <time>2025-02-15T10:54:24.000Z</time>
      </trkpt>
      <trkpt lat="-44.662637" lon="169.053256">
        <ele>315.034529</ele>
        <time>2025-02-15T10:54:26.000Z</time>
      </trkpt>
      <trkpt lat="-44.662876" lon="169.054417">
        <ele>315.761077</ele>
        <time>2025-02-15T10:54:36.000Z</time>
      </trkpt>
      <trkpt lat="-44.66289" lon="169.054837">
        <ele>315.234907</ele>
        <time>2025-02-15T10:54:39.000Z</time>
      </trkpt>
      <trkpt lat="-44.662783" lon="169.056187">
        <ele>313.516762</ele>
        <time>2025-02-15T10:54:50.000Z</time>
      </trkpt>
      <trkpt lat="-44.662772" lon="169.056857">
        <ele>312.857651</ele>
        <time>2025-02-15T10:54:55.000Z</time>
      </trkpt>
      <trkpt lat="-44.662935" lon="169.057575">
        <ele>312.180024</ele>
        <time>2025-02-15T10:55:01.000Z</time>
      </trkpt>
      <trkpt lat="-44.663596" lon="169.059987">
        <ele>314.487279</ele>
        <time>2025-02-15T10:55:21.000Z</time>
      </trkpt>
      <trkpt lat="-44.663873" lon="169.060819">
        <ele>316.911147</ele>
        <time>2025-02-15T10:55:28.000Z</time>
      </trkpt>
      <trkpt lat="-44.664263" lon="169.061674">
        <ele>319.757523</ele>
        <time>2025-02-15T10:55:36.000Z</time>
      </trkpt>
      <trkpt lat="-44.664633" lon="169.062428">
        <ele>322.508519</ele>
        <time>2025-02-15T10:55:43.000Z</time>
      </trkpt>
      <trkpt lat="-44.665832" lon="169.064331">
        <ele>327.150253</ele>
        <time>2025-02-15T10:56:03.000Z</time>
      </trkpt>
      <trkpt lat="-44.666472" lon="169.065184">
        <ele>328.343202</ele>
        <time>2025-02-15T10:56:13.000Z</time>
      </trkpt>
      <trkpt lat="-44.668062" lon="169.066956">
        <ele>328.628888</ele>
        <time>2025-02-15T10:56:36.000Z</time>
      </trkpt>
      <trkpt lat="-44.668276" lon="169.067233">
        <ele>328.466583</ele>
        <time>2025-02-15T10:56:39.000Z</time>
      </trkpt>
      <trkpt lat="-44.668894" lon="169.068414">
        <ele>327.895051</ele>
        <time>2025-02-15T10:56:51.000Z</time>
      </trkpt>
      <trkpt lat="-44.669334" lon="169.069112">
        <ele>327.845044</ele>
        <time>2025-02-15T10:56:58.000Z</time>
      </trkpt>
      <trkpt lat="-44.6706" lon="169.070883">
        <ele>327.862024</ele>
        <time>2025-02-15T10:57:18.000Z</time>
      </trkpt>
      <trkpt lat="-44.670827" lon="169.071139">
        <ele>327.907766</ele>
        <time>2025-02-15T10:57:21.000Z</time>
      </trkpt>
      <trkpt lat="-44.671125" lon="169.071356">
        <ele>327.95874</ele>
        <time>2025-02-15T10:57:25.000Z</time>
      </trkpt>
      <trkpt lat="-44.672743" lon="169.071886">
        <ele>328.063848</ele>
        <time>2025-02-15T10:57:43.000Z</time>
      </trkpt>
      <trkpt lat="-44.673324" lon="169.072074">
        <ele>328.078756</ele>
        <time>2025-02-15T10:57:50.000Z</time>
      </trkpt>
      <trkpt lat="-44.673955" lon="169.072278">
        <ele>328.764591</ele>
        <time>2025-02-15T10:57:57.000Z</time>
      </trkpt>
      <trkpt lat="-44.674346" lon="169.072496">
        <ele>329.226328</ele>
        <time>2025-02-15T10:58:02.000Z</time>
      </trkpt>
      <trkpt lat="-44.675093" lon="169.073278">
        <ele>330.307173</ele>
        <time>2025-02-15T10:58:12.000Z</time>
      </trkpt>
      <trkpt lat="-44.676708" lon="169.075171">
        <ele>333.34994</ele>
        <time>2025-02-15T10:58:35.000Z</time>
      </trkpt>
      <trkpt lat="-44.677165" lon="169.075627">
        <ele>334.583588</ele>
        <time>2025-02-15T10:58:41.000Z</time>
      </trkpt>
      <trkpt lat="-44.677291" lon="169.075755">
        <ele>334.921452</ele>
        <time>2025-02-15T10:58:43.000Z</time>
      </trkpt>
      <trkpt lat="-44.680773" lon="169.07889">
        <ele>347.103717</ele>
        <time>2025-02-15T10:59:29.000Z</time>
      </trkpt>
      <trkpt lat="-44.683012" lon="169.08078">
        <ele>346.586505</ele>
        <time>2025-02-15T10:59:58.000Z</time>
      </trkpt>
      <trkpt lat="-44.685473" lon="169.082518">
        <ele>340.387811</ele>
        <time>2025-02-15T11:00:29.000Z</time>
      </trkpt>
      <trkpt lat="-44.686516" lon="169.083642">
        <ele>335.125522</ele>
        <time>2025-02-15T11:00:44.000Z</time>
      </trkpt>
      <trkpt lat="-44.687513" lon="169.085177">
        <ele>328.803129</ele>
        <time>2025-02-15T11:01:00.000Z</time>
      </trkpt>
      <trkpt lat="-44.688453" lon="169.086697">
        <ele>323.745695</ele>
        <time>2025-02-15T11:01:16.000Z</time>
      </trkpt>
      <trkpt lat="-44.690493" lon="169.090459">
        <ele>318.948882</ele>
        <time>2025-02-15T11:01:53.000Z</time>
      </trkpt>
      <trkpt lat="-44.691641" lon="169.092635">
        <ele>319.199245</ele>
        <time>2025-02-15T11:02:14.000Z</time>
      </trkpt>
      <trkpt lat="-44.692179" lon="169.093778">
        <ele>320.315952</ele>
        <time>2025-02-15T11:02:25.000Z</time>
      </trkpt>
      <trkpt lat="-44.692204" lon="169.093884">
        <ele>320.405147</ele>
        <time>2025-02-15T11:02:26.000Z</time>
      </trkpt>
      <trkpt lat="-44.692501" lon="169.094591">
        <ele>321.375481</ele>
        <time>2025-02-15T11:02:32.000Z</time>
      </trkpt>
      <trkpt lat="-44.692881" lon="169.095688">
        <ele>323.418905</ele>
        <time>2025-02-15T11:02:42.000Z</time>
      </trkpt>
      <trkpt lat="-44.693026" lon="169.095945">
        <ele>323.974121</ele>
        <time>2025-02-15T11:02:45.000Z</time>
      </trkpt>
      <trkpt lat="-44.693524" lon="169.096601">
        <ele>325.422889</ele>
        <time>2025-02-15T11:02:53.000Z</time>
      </trkpt>
      <trkpt lat="-44.693741" lon="169.096829">
        <ele>325.813356</ele>
        <time>2025-02-15T11:02:56.000Z</time>
      </trkpt>
      <trkpt lat="-44.694133" lon="169.097153">
        <ele>326.471286</ele>
        <time>2025-02-15T11:03:01.000Z</time>
      </trkpt>
      <trkpt lat="-44.69425" lon="169.097215">
        <ele>326.655474</ele>
        <time>2025-02-15T11:03:02.000Z</time>
      </trkpt>
      <trkpt lat="-44.697141" lon="169.09876">
        <ele>328.490278</ele>
        <time>2025-02-15T11:03:36.000Z</time>
      </trkpt>
      <trkpt lat="-44.697517" lon="169.099005">
        <ele>328.572457</ele>
        <time>2025-02-15T11:03:41.000Z</time>
      </trkpt>
      <trkpt lat="-44.697768" lon="169.099224">
        <ele>328.627593</ele>
        <time>2025-02-15T11:03:44.000Z</time>
      </trkpt>
      <trkpt lat="-44.697886" lon="169.099392">
        <ele>328.661426</ele>
        <time>2025-02-15T11:03:46.000Z</time>
      </trkpt>
      <trkpt lat="-44.698123" lon="169.099769">
        <ele>328.728997</ele>
        <time>2025-02-15T11:03:50.000Z</time>
      </trkpt>
      <trkpt lat="-44.698555" lon="169.100706">
        <ele>329.673778</ele>
        <time>2025-02-15T11:03:59.000Z</time>
      </trkpt>
      <trkpt lat="-44.69882" lon="169.101344">
        <ele>330.303282</ele>
        <time>2025-02-15T11:04:05.000Z</time>
      </trkpt>
      <trkpt lat="-44.698937" lon="169.101558">
        <ele>330.525868</ele>
        <time>2025-02-15T11:04:07.000Z</time>
      </trkpt>
      <trkpt lat="-44.699336" lon="169.102517">
        <ele>331.088219</ele>
        <time>2025-02-15T11:04:16.000Z</time>
      </trkpt>
      <trkpt lat="-44.699722" lon="169.10349">
        <ele>331.436666</ele>
        <time>2025-02-15T11:04:25.000Z</time>
      </trkpt>
      <trkpt lat="-44.700215" lon="169.104803">
        <ele>330.260031</ele>
        <time>2025-02-15T11:04:37.000Z</time>
      </trkpt>
      <trkpt lat="-44.700577" lon="169.105769">
        <ele>328.323893</ele>
        <time>2025-02-15T11:04:46.000Z</time>
      </trkpt>
      <trkpt lat="-44.700827" lon="169.106504">
        <ele>326.813097</ele>
        <time>2025-02-15T11:04:52.000Z</time>
      </trkpt>
      <trkpt lat="-44.700891" lon="169.106772">
        <ele>326.276181</ele>
        <time>2025-02-15T11:04:54.000Z</time>
      </trkpt>
      <trkpt lat="-44.700951" lon="169.106981">
        <ele>325.813429</ele>
        <time>2025-02-15T11:04:56.000Z</time>
      </trkpt>
      <trkpt lat="-44.701015" lon="169.107563">
        <ele>324.670988</ele>
        <time>2025-02-15T11:05:01.000Z</time>
      </trkpt>
      <trkpt lat="-44.701084" lon="169.108308">
        <ele>323.175422</ele>
        <time>2025-02-15T11:05:07.000Z</time>
      </trkpt>
      <trkpt lat="-44.701146" lon="169.108937">
        <ele>321.954498</ele>
        <time>2025-02-15T11:05:12.000Z</time>
      </trkpt>
      <trkpt lat="-44.701577" lon="169.11292">
        <ele>314.091921</ele>
        <time>2025-02-15T11:05:44.000Z</time>
      </trkpt>
      <trkpt lat="-44.701546" lon="169.113152">
        <ele>313.586711</ele>
        <time>2025-02-15T11:05:46.000Z</time>
      </trkpt>
      <trkpt lat="-44.70146" lon="169.113414">
        <ele>312.980732</ele>
        <time>2025-02-15T11:05:48.000Z</time>
      </trkpt>
      <trkpt lat="-44.701063" lon="169.114387">
        <ele>309.871063</ele>
        <time>2025-02-15T11:05:57.000Z</time>
      </trkpt>
      <trkpt lat="-44.70102" lon="169.114379">
        <ele>309.708642</ele>
        <time>2025-02-15T11:05:57.000Z</time>
      </trkpt>
      <trkpt lat="-44.700979" lon="169.114426">
        <ele>309.46966</ele>
        <time>2025-02-15T11:05:58.000Z</time>
      </trkpt>
      <trkpt lat="-44.700987" lon="169.114519">
        <ele>309.207039</ele>
        <time>2025-02-15T11:05:59.000Z</time>
      </trkpt>
      <trkpt lat="-44.701008" lon="169.114552">
        <ele>309.030106</ele>
        <time>2025-02-15T11:05:59.000Z</time>
      </trkpt>
      <trkpt lat="-44.700995" lon="169.114674">
        <ele>308.64562</ele>
        <time>2025-02-15T11:06:00.000Z</time>
      </trkpt>
      <trkpt lat="-44.700879" lon="169.115952">
        <ele>304.656058</ele>
        <time>2025-02-15T11:06:10.000Z</time>
      </trkpt>
      <trkpt lat="-44.70085" lon="169.116322">
        <ele>303.41041</ele>
        <time>2025-02-15T11:06:13.000Z</time>
      </trkpt>
      <trkpt lat="-44.700703" lon="169.117755">
        <ele>298.159729</ele>
        <time>2025-02-15T11:06:24.000Z</time>
      </trkpt>
      <trkpt lat="-44.700631" lon="169.118463">
        <ele>295.577708</ele>
        <time>2025-02-15T11:06:30.000Z</time>
      </trkpt>
      <trkpt lat="-44.700495" lon="169.119614">
        <ele>292.255011</ele>
        <time>2025-02-15T11:06:39.000Z</time>
      </trkpt>
      <trkpt lat="-44.700249" lon="169.121256">
        <ele>287.850188</ele>
        <time>2025-02-15T11:06:52.000Z</time>
      </trkpt>
      <trkpt lat="-44.699831" lon="169.122891">
        <ele>285.330643</ele>
        <time>2025-02-15T11:07:06.000Z</time>
      </trkpt>
      <trkpt lat="-44.699766" lon="169.123264">
        <ele>284.781307</ele>
        <time>2025-02-15T11:07:09.000Z</time>
      </trkpt>
      <trkpt lat="-44.699745" lon="169.123538">
        <ele>284.431523</ele>
        <time>2025-02-15T11:07:11.000Z</time>
      </trkpt>
      <trkpt lat="-44.699543" lon="169.124991">
        <ele>283.277268</ele>
        <time>2025-02-15T11:07:23.000Z</time>
      </trkpt>
      <trkpt lat="-44.699322" lon="169.125865">
        <ele>282.554235</ele>
        <time>2025-02-15T11:07:30.000Z</time>
      </trkpt>
      <trkpt lat="-44.698908" lon="169.127138">
        <ele>282.037027</ele>
        <time>2025-02-15T11:07:41.000Z</time>
      </trkpt>
      <trkpt lat="-44.698829" lon="169.127387">
        <ele>281.937128</ele>
        <time>2025-02-15T11:07:43.000Z</time>
      </trkpt>
      <trkpt lat="-44.698607" lon="169.127999">
        <ele>281.69293</ele>
        <time>2025-02-15T11:07:48.000Z</time>
      </trkpt>
      <trkpt lat="-44.698148" lon="169.129053">
        <ele>281.415744</ele>
        <time>2025-02-15T11:07:58.000Z</time>
      </trkpt>
      <trkpt lat="-44.697694" lon="169.12999">
        <ele>281.197205</ele>
        <time>2025-02-15T11:08:07.000Z</time>
      </trkpt>
      <trkpt lat="-44.696805" lon="169.131605">
        <ele>280.967282</ele>
        <time>2025-02-15T11:08:23.000Z</time>
      </trkpt>
      <trkpt lat="-44.696651" lon="169.131856">
        <ele>280.937266</ele>
        <time>2025-02-15T11:08:26.000Z</time>
      </trkpt>
      <trkpt lat="-44.69665" lon="169.131863">
        <ele>280.935835</ele>
        <time>2025-02-15T11:08:26.000Z</time>
      </trkpt>
      <trkpt lat="-44.696665" lon="169.131854">
        <ele>280.934399</ele>
        <time>2025-02-15T11:08:26.000Z</time>
      </trkpt>
      <trkpt lat="-44.696815" lon="169.131599">
        <ele>280.904375</ele>
        <time>2025-02-15T11:08:29.000Z</time>
      </trkpt>
      <trkpt lat="-44.69771" lon="169.129983">
        <ele>281.202573</ele>
        <time>2025-02-15T11:08:45.000Z</time>
      </trkpt>
      <trkpt lat="-44.69816" lon="169.129058">
        <ele>281.423822</ele>
        <time>2025-02-15T11:08:54.000Z</time>
      </trkpt>
      <trkpt lat="-44.698602" lon="169.127988">
        <ele>281.715549</ele>
        <time>2025-02-15T11:09:04.000Z</time>
      </trkpt>
      <trkpt lat="-44.698831" lon="169.127392">
        <ele>281.876402</ele>
        <time>2025-02-15T11:09:09.000Z</time>
      </trkpt>
      <trkpt lat="-44.698911" lon="169.127124">
        <ele>281.977464</ele>
        <time>2025-02-15T11:09:11.000Z</time>
      </trkpt>
      <trkpt lat="-44.699318" lon="169.125865">
        <ele>282.667481</ele>
        <time>2025-02-15T11:09:22.000Z</time>
      </trkpt>
      <trkpt lat="-44.699537" lon="169.124993">
        <ele>283.126662</ele>
        <time>2025-02-15T11:09:29.000Z</time>
      </trkpt>
      <trkpt lat="-44.699744" lon="169.123549">
        <ele>284.582811</ele>
        <time>2025-02-15T11:09:41.000Z</time>
      </trkpt>
      <trkpt lat="-44.699762" lon="169.123265">
        <ele>284.866761</ele>
        <time>2025-02-15T11:09:43.000Z</time>
      </trkpt>
      <trkpt lat="-44.699834" lon="169.122888">
        <ele>285.252888</ele>
        <time>2025-02-15T11:09:46.000Z</time>
      </trkpt>
      <trkpt lat="-44.700255" lon="169.12125">
        <ele>288.172664</ele>
        <time>2025-02-15T11:10:00.000Z</time>
      </trkpt>
      <trkpt lat="-44.700488" lon="169.119598">
        <ele>292.006421</ele>
        <time>2025-02-15T11:10:13.000Z</time>
      </trkpt>
      <trkpt lat="-44.700631" lon="169.118451">
        <ele>295.863171</ele>
        <time>2025-02-15T11:10:22.000Z</time>
      </trkpt>
      <trkpt lat="-44.700704" lon="169.117755">
        <ele>298.229597</ele>
        <time>2025-02-15T11:10:28.000Z</time>
      </trkpt>
      <trkpt lat="-44.70085" lon="169.116315">
        <ele>303.253629</ele>
        <time>2025-02-15T11:10:40.000Z</time>
      </trkpt>
      <trkpt lat="-44.700891" lon="169.11595">
        <ele>304.511955</ele>
        <time>2025-02-15T11:10:43.000Z</time>
      </trkpt>
      <trkpt lat="-44.70098" lon="169.11467">
        <ele>308.767501</ele>
        <time>2025-02-15T11:10:53.000Z</time>
      </trkpt>
      <trkpt lat="-44.701012" lon="169.114539">
        <ele>309.108254</ele>
        <time>2025-02-15T11:10:54.000Z</time>
      </trkpt>
      <trkpt lat="-44.701071" lon="169.114524">
        <ele>309.331913</ele>
        <time>2025-02-15T11:10:55.000Z</time>
      </trkpt>
      <trkpt lat="-44.701086" lon="169.11448">
        <ele>309.483813</ele>
        <time>2025-02-15T11:10:55.000Z</time>
      </trkpt>
      <trkpt lat="-44.701063" lon="169.114393">
        <ele>309.734498</ele>
        <time>2025-02-15T11:10:56.000Z</time>
      </trkpt>
      <trkpt lat="-44.701461" lon="169.113414">
        <ele>312.825448</ele>
        <time>2025-02-15T11:11:05.000Z</time>
      </trkpt>
      <trkpt lat="-44.701531" lon="169.113143">
        <ele>313.592956</ele>
        <time>2025-02-15T11:11:07.000Z</time>
      </trkpt>
      <trkpt lat="-44.70157" lon="169.112928">
        <ele>314.232831</ele>
        <time>2025-02-15T11:11:09.000Z</time>
      </trkpt>
      <trkpt lat="-44.70115" lon="169.108933">
        <ele>321.990592</ele>
        <time>2025-02-15T11:11:41.000Z</time>
      </trkpt>
      <trkpt lat="-44.701084" lon="169.108301">
        <ele>323.137119</ele>
        <time>2025-02-15T11:11:46.000Z</time>
      </trkpt>
      <trkpt lat="-44.701018" lon="169.107558">
        <ele>324.575749</ele>
        <time>2025-02-15T11:11:52.000Z</time>
      </trkpt>
      <trkpt lat="-44.700959" lon="169.106977">
        <ele>325.796393</ele>
        <time>2025-02-15T11:11:57.000Z</time>
      </trkpt>
      <trkpt lat="-44.700894" lon="169.106771">
        <ele>326.290798</ele>
        <time>2025-02-15T11:11:59.000Z</time>
      </trkpt>
      <trkpt lat="-44.700827" lon="169.106503">
        <ele>326.864483</ele>
        <time>2025-02-15T11:12:01.000Z</time>
      </trkpt>
      <trkpt lat="-44.700571" lon="169.105764">
        <ele>328.60721</ele>
        <time>2025-02-15T11:12:07.000Z</time>
      </trkpt>
      <trkpt lat="-44.700215" lon="169.104812">
        <ele>330.120056</ele>
        <time>2025-02-15T11:12:16.000Z</time>
      </trkpt>
      <trkpt lat="-44.699718" lon="169.103474">
        <ele>331.519535</ele>
        <time>2025-02-15T11:12:28.000Z</time>
      </trkpt>
      <trkpt lat="-44.699334" lon="169.10251">
        <ele>331.27415</ele>
        <time>2025-02-15T11:12:37.000Z</time>
      </trkpt>
      <trkpt lat="-44.698929" lon="169.101563">
        <ele>330.35891</ele>
        <time>2025-02-15T11:12:46.000Z</time>
      </trkpt>
      <trkpt lat="-44.698825" lon="169.101347">
        <ele>330.141371</ele>
        <time>2025-02-15T11:12:48.000Z</time>
      </trkpt>
      <trkpt lat="-44.698551" lon="169.100711">
        <ele>329.625435</ele>
        <time>2025-02-15T11:12:54.000Z</time>
      </trkpt>
      <trkpt lat="-44.698117" lon="169.099758">
        <ele>329.051837</ele>
        <time>2025-02-15T11:13:03.000Z</time>
      </trkpt>
      <trkpt lat="-44.6979" lon="169.099385">
        <ele>328.80054</ele>
        <time>2025-02-15T11:13:07.000Z</time>
      </trkpt>
      <trkpt lat="-44.697768" lon="169.099219">
        <ele>328.674773</ele>
        <time>2025-02-15T11:13:09.000Z</time>
      </trkpt>
      <trkpt lat="-44.697522" lon="169.098996">
        <ele>328.487436</ele>
        <time>2025-02-15T11:13:12.000Z</time>
      </trkpt>
      <trkpt lat="-44.69713" lon="169.098767">
        <ele>328.399856</ele>
        <time>2025-02-15T11:13:17.000Z</time>
      </trkpt>
      <trkpt lat="-44.69424" lon="169.097214">
        <ele>327.064867</ele>
        <time>2025-02-15T11:13:51.000Z</time>
      </trkpt>
      <trkpt lat="-44.694119" lon="169.097154">
        <ele>326.861153</ele>
        <time>2025-02-15T11:13:52.000Z</time>
      </trkpt>
      <trkpt lat="-44.69374" lon="169.096835">
        <ele>325.895466</ele>
        <time>2025-02-15T11:13:57.000Z</time>
      </trkpt>
      <trkpt lat="-44.69353" lon="169.096607">
        <ele>325.322308</ele>
        <time>2025-02-15T11:14:00.000Z</time>
      </trkpt>
      <trkpt lat="-44.693025" lon="169.095939">
        <ele>323.809275</ele>
        <time>2025-02-15T11:14:08.000Z</time>
      </trkpt>
      <trkpt lat="-44.692886" lon="169.095679">
        <ele>323.301551</ele>
        <time>2025-02-15T11:14:11.000Z</time>
      </trkpt>
      <trkpt lat="-44.692501" lon="169.094591">
        <ele>321.575068</ele>
        <time>2025-02-15T11:14:21.000Z</time>
      </trkpt>
      <trkpt lat="-44.692214" lon="169.093881">
        <ele>320.403966</ele>
        <time>2025-02-15T11:14:27.000Z</time>
      </trkpt>
      <trkpt lat="-44.692166" lon="169.093779">
        <ele>320.249614</ele>
        <time>2025-02-15T11:14:28.000Z</time>
      </trkpt>
      <trkpt lat="-44.69164" lon="169.092628">
        <ele>319.216669</ele>
        <time>2025-02-15T11:14:39.000Z</time>
      </trkpt>
      <trkpt lat="-44.6905" lon="169.090451">
        <ele>319.095565</ele>
        <time>2025-02-15T11:15:00.000Z</time>
      </trkpt>
      <trkpt lat="-44.688442" lon="169.086703">
        <ele>323.800517</ele>
        <time>2025-02-15T11:15:37.000Z</time>
      </trkpt>
      <trkpt lat="-44.687495" lon="169.085171">
        <ele>328.562408</ele>
        <time>2025-02-15T11:15:53.000Z</time>
      </trkpt>
      <trkpt lat="-44.686512" lon="169.083629">
        <ele>335.366931</ele>
        <time>2025-02-15T11:16:09.000Z</time>
      </trkpt>
      <trkpt lat="-44.685485" lon="169.082521">
        <ele>340.089498</ele>
        <time>2025-02-15T11:16:23.000Z</time>
      </trkpt>
      <trkpt lat="-44.683009" lon="169.080791">
        <ele>346.834182</ele>
        <time>2025-02-15T11:16:54.000Z</time>
      </trkpt>
      <trkpt lat="-44.680769" lon="169.078896">
        <ele>346.490487</ele>
        <time>2025-02-15T11:17:23.000Z</time>
      </trkpt>
      <trkpt lat="-44.677287" lon="169.075752">
        <ele>334.60106</ele>
        <time>2025-02-15T11:18:09.000Z</time>
      </trkpt>
      <trkpt lat="-44.677169" lon="169.075624">
        <ele>334.139748</ele>
        <time>2025-02-15T11:18:11.000Z</time>
      </trkpt>
      <trkpt lat="-44.676724" lon="169.075165">
        <ele>333.290796</ele>
        <time>2025-02-15T11:18:17.000Z</time>
      </trkpt>
      <trkpt lat="-44.675091" lon="169.073287">
        <ele>330.282412</ele>
        <time>2025-02-15T11:18:40.000Z</time>
      </trkpt>
      <trkpt lat="-44.674337" lon="169.0725">
        <ele>329.082337</ele>
        <time>2025-02-15T11:18:50.000Z</time>
      </trkpt>
      <trkpt lat="-44.673968" lon="169.072264">
        <ele>328.801422</ele>
        <time>2025-02-15T11:18:55.000Z</time>
      </trkpt>
      <trkpt lat="-44.673337" lon="169.072069">
        <ele>328.353515</ele>
        <time>2025-02-15T11:19:02.000Z</time>
      </trkpt>
      <trkpt lat="-44.672738" lon="169.071898">
        <ele>327.942304</ele>
        <time>2025-02-15T11:19:09.000Z</time>
      </trkpt>
      <trkpt lat="-44.671135" lon="169.07135">
        <ele>328.050987</ele>
        <time>2025-02-15T11:19:27.000Z</time>
      </trkpt>
      <trkpt lat="-44.67084" lon="169.071141">
        <ele>328.069255</ele>
        <time>2025-02-15T11:19:31.000Z</time>
      </trkpt>
      <trkpt lat="-44.670602" lon="169.070878">
        <ele>327.972234</ele>
        <time>2025-02-15T11:19:34.000Z</time>
      </trkpt>
      <trkpt lat="-44.669341" lon="169.069111">
        <ele>327.701861</ele>
        <time>2025-02-15T11:19:54.000Z</time>
      </trkpt>
      <trkpt lat="-44.668901" lon="169.068425">
        <ele>328.091054</ele>
        <time>2025-02-15T11:20:01.000Z</time>
      </trkpt>
      <trkpt lat="-44.668268" lon="169.067232">
        <ele>328.582165</ele>
        <time>2025-02-15T11:20:13.000Z</time>
      </trkpt>
      <trkpt lat="-44.668055" lon="169.066946">
        <ele>328.609356</ele>
        <time>2025-02-15T11:20:16.000Z</time>
      </trkpt>
      <trkpt lat="-44.666461" lon="169.065191">
        <ele>328.116413</ele>
        <time>2025-02-15T11:20:39.000Z</time>
      </trkpt>
      <trkpt lat="-44.665824" lon="169.064336">
        <ele>327.415698</ele>
        <time>2025-02-15T11:20:49.000Z</time>
      </trkpt>
      <trkpt lat="-44.664641" lon="169.062438">
        <ele>322.936193</ele>
        <time>2025-02-15T11:21:09.000Z</time>
      </trkpt>
      <trkpt lat="-44.664265" lon="169.061658">
        <ele>320.100769</ele>
        <time>2025-02-15T11:21:16.000Z</time>
      </trkpt>
      <trkpt lat="-44.663873" lon="169.060819">
        <ele>316.758637</ele>
        <time>2025-02-15T11:21:24.000Z</time>
      </trkpt>
      <trkpt lat="-44.663602" lon="169.059993">
        <ele>313.926029</ele>
        <time>2025-02-15T11:21:31.000Z</time>
      </trkpt>
      <trkpt lat="-44.662943" lon="169.057572">
        <ele>310.935579</ele>
        <time>2025-02-15T11:21:52.000Z</time>
      </trkpt>
      <trkpt lat="-44.662769" lon="169.056847">
        <ele>312.586721</ele>
        <time>2025-02-15T11:21:58.000Z</time>
      </trkpt>
      <trkpt lat="-44.662784" lon="169.056188">
        <ele>314.04165</ele>
        <time>2025-02-15T11:22:03.000Z</time>
      </trkpt>
      <trkpt lat="-44.662883" lon="169.054844">
        <ele>315.760439</ele>
        <time>2025-02-15T11:22:14.000Z</time>
      </trkpt>
      <trkpt lat="-44.662882" lon="169.054419">
        <ele>315.464071</ele>
        <time>2025-02-15T11:22:17.000Z</time>
      </trkpt>
      <trkpt lat="-44.662636" lon="169.053257">
        <ele>314.606577</ele>
        <time>2025-02-15T11:22:27.000Z</time>
      </trkpt>
      <trkpt lat="-44.662595" lon="169.052961">
        <ele>314.38495</ele>
        <time>2025-02-15T11:22:29.000Z</time>
      </trkpt>
      <trkpt lat="-44.66261" lon="169.052604">
        <ele>313.787612</ele>
        <time>2025-02-15T11:22:32.000Z</time>
      </trkpt>
      <trkpt lat="-44.663124" lon="169.048884">
        <ele>305.642574</ele>
        <time>2025-02-15T11:23:02.000Z</time>
      </trkpt>
      <trkpt lat="-44.663322" lon="169.048217">
        <ele>304.447794</ele>
        <time>2025-02-15T11:23:08.000Z</time>
      </trkpt>
      <trkpt lat="-44.663616" lon="169.047604">
        <ele>303.977092</ele>
        <time>2025-02-15T11:23:14.000Z</time>
      </trkpt>
      <trkpt lat="-44.664253" lon="169.046575">
        <ele>304.386897</ele>
        <time>2025-02-15T11:23:25.000Z</time>
      </trkpt>
      <trkpt lat="-44.664433" lon="169.046158">
        <ele>304.537736</ele>
        <time>2025-02-15T11:23:29.000Z</time>
      </trkpt>
      <trkpt lat="-44.664639" lon="169.04569">
        <ele>304.608403</ele>
        <time>2025-02-15T11:23:33.000Z</time>
      </trkpt>
      <trkpt lat="-44.664825" lon="169.044806">
        <ele>304.547668</ele>
        <time>2025-02-15T11:23:40.000Z</time>
      </trkpt>
      <trkpt lat="-44.664863" lon="169.044376">
        <ele>304.518965</ele>
        <time>2025-02-15T11:23:43.000Z</time>
      </trkpt>
      <trkpt lat="-44.664813" lon="169.044038">
        <ele>304.497038</ele>
        <time>2025-02-15T11:23:46.000Z</time>
      </trkpt>
      <trkpt lat="-44.664701" lon="169.04372">
        <ele>304.473244</ele>
        <time>2025-02-15T11:23:49.000Z</time>
      </trkpt>
      <trkpt lat="-44.664138" lon="169.042419">
        <ele>302.727707</ele>
        <time>2025-02-15T11:24:01.000Z</time>
      </trkpt>
      <trkpt lat="-44.664058" lon="169.042005">
        <ele>302.155978</ele>
        <time>2025-02-15T11:24:04.000Z</time>
      </trkpt>
      <trkpt lat="-44.664022" lon="169.041539">
        <ele>301.557801</ele>
        <time>2025-02-15T11:24:08.000Z</time>
      </trkpt>
      <trkpt lat="-44.664094" lon="169.041189">
        <ele>301.078554</ele>
        <time>2025-02-15T11:24:11.000Z</time>
      </trkpt>
      <trkpt lat="-44.664227" lon="169.040751">
        <ele>300.487624</ele>
        <time>2025-02-15T11:24:15.000Z</time>
      </trkpt>
      <trkpt lat="-44.664346" lon="169.040539">
        <ele>300.151194</ele>
        <time>2025-02-15T11:24:17.000Z</time>
      </trkpt>
      <trkpt lat="-44.664727" lon="169.039879">
        <ele>299.087372</ele>
        <time>2025-02-15T11:24:24.000Z</time>
      </trkpt>
      <trkpt lat="-44.665821" lon="169.038401">
        <ele>296.475189</ele>
        <time>2025-02-15T11:24:41.000Z</time>
      </trkpt>
      <trkpt lat="-44.666036" lon="169.038046">
        <ele>295.915128</ele>
        <time>2025-02-15T11:24:45.000Z</time>
      </trkpt>
      <trkpt lat="-44.666508" lon="169.036945">
        <ele>294.467292</ele>
        <time>2025-02-15T11:24:55.000Z</time>
      </trkpt>
      <trkpt lat="-44.66665" lon="169.036731">
        <ele>294.204798</ele>
        <time>2025-02-15T11:24:57.000Z</time>
      </trkpt>
      <trkpt lat="-44.66828" lon="169.034559">
        <ele>291.392866</ele>
        <time>2025-02-15T11:25:22.000Z</time>
      </trkpt>
      <trkpt lat="-44.668838" lon="169.033942">
        <ele>290.558773</ele>
        <time>2025-02-15T11:25:30.000Z</time>
      </trkpt>
      <trkpt lat="-44.670088" lon="169.033085">
        <ele>290.721361</ele>
        <time>2025-02-15T11:25:45.000Z</time>
      </trkpt>
      <trkpt lat="-44.670766" lon="169.032456">
        <ele>291.778276</ele>
        <time>2025-02-15T11:25:54.000Z</time>
      </trkpt>
      <trkpt lat="-44.672398" lon="169.030452">
        <ele>297.850859</ele>
        <time>2025-02-15T11:26:18.000Z</time>
      </trkpt>
      <trkpt lat="-44.672975" lon="169.02986">
        <ele>299.447035</ele>
        <time>2025-02-15T11:26:26.000Z</time>
      </trkpt>
      <trkpt lat="-44.673309" lon="169.029112">
        <ele>300.060512</ele>
        <time>2025-02-15T11:26:33.000Z</time>
      </trkpt>
      <trkpt lat="-44.673729" lon="169.028507">
        <ele>299.08107</ele>
        <time>2025-02-15T11:26:40.000Z</time>
      </trkpt>
      <trkpt lat="-44.673846" lon="169.028216">
        <ele>298.699093</ele>
        <time>2025-02-15T11:26:43.000Z</time>
      </trkpt>
      <trkpt lat="-44.673907" lon="169.027919">
        <ele>298.353402</ele>
        <time>2025-02-15T11:26:45.000Z</time>
      </trkpt>
      <trkpt lat="-44.674014" lon="169.026712">
        <ele>296.538565</ele>
        <time>2025-02-15T11:26:55.000Z</time>
      </trkpt>
      <trkpt lat="-44.674127" lon="169.026147">
        <ele>295.388596</ele>
        <time>2025-02-15T11:27:00.000Z</time>
      </trkpt>
      <trkpt lat="-44.674328" lon="169.025713">
        <ele>294.359188</ele>
        <time>2025-02-15T11:27:04.000Z</time>
      </trkpt>
      <trkpt lat="-44.674655" lon="169.025375">
        <ele>293.254653</ele>
        <time>2025-02-15T11:27:09.000Z</time>
      </trkpt>
      <trkpt lat="-44.675003" lon="169.024766">
        <ele>291.856254</ele>
        <time>2025-02-15T11:27:15.000Z</time>
      </trkpt>
      <trkpt lat="-44.675162" lon="169.024231">
        <ele>290.945045</ele>
        <time>2025-02-15T11:27:20.000Z</time>
      </trkpt>
      <trkpt lat="-44.675276" lon="169.023594">
        <ele>289.925576</ele>
        <time>2025-02-15T11:27:25.000Z</time>
      </trkpt>
      <trkpt lat="-44.675358" lon="169.022736">
        <ele>288.580232</ele>
        <time>2025-02-15T11:27:32.000Z</time>
      </trkpt>
      <trkpt lat="-44.675357" lon="169.022194">
        <ele>288.120882</ele>
        <time>2025-02-15T11:27:36.000Z</time>
      </trkpt>
      <trkpt lat="-44.675168" lon="169.021099">
        <ele>287.215403</ele>
        <time>2025-02-15T11:27:45.000Z</time>
      </trkpt>
      <trkpt lat="-44.674789" lon="169.019068">
        <ele>286.446435</ele>
        <time>2025-02-15T11:28:02.000Z</time>
      </trkpt>
      <trkpt lat="-44.674752" lon="169.01885">
        <ele>286.435058</ele>
        <time>2025-02-15T11:28:04.000Z</time>
      </trkpt>
      <trkpt lat="-44.674744" lon="169.018547">
        <ele>286.420929</ele>
        <time>2025-02-15T11:28:06.000Z</time>
      </trkpt>
      <trkpt lat="-44.674635" lon="169.016228">
        <ele>286.675845</ele>
        <time>2025-02-15T11:28:24.000Z</time>
      </trkpt>
      <trkpt lat="-44.674524" lon="169.01462">
        <ele>286.824743</ele>
        <time>2025-02-15T11:28:37.000Z</time>
      </trkpt>
      <trkpt lat="-44.674467" lon="169.014367">
        <ele>286.80434</ele>
        <time>2025-02-15T11:28:39.000Z</time>
      </trkpt>
      <trkpt lat="-44.674355" lon="169.014011">
        <ele>286.774582</ele>
        <time>2025-02-15T11:28:42.000Z</time>
      </trkpt>
      <trkpt lat="-44.674143" lon="169.013587">
        <ele>286.736229</ele>
        <time>2025-02-15T11:28:46.000Z</time>
      </trkpt>
      <trkpt lat="-44.672401" lon="169.010674">
        <ele>285.673558</ele>
        <time>2025-02-15T11:29:16.000Z</time>
      </trkpt>
      <trkpt lat="-44.672022" lon="169.010101">
        <ele>285.341949</ele>
        <time>2025-02-15T11:29:22.000Z</time>
      </trkpt>
      <trkpt lat="-44.671623" lon="169.009595">
        <ele>285.021201</ele>
        <time>2025-02-15T11:29:28.000Z</time>
      </trkpt>
      <trkpt lat="-44.67082" lon="169.009253">
        <ele>284.979006</ele>
        <time>2025-02-15T11:29:37.000Z</time>
      </trkpt>
      <trkpt lat="-44.669989" lon="169.008933">
        <ele>285.241036</ele>
        <time>2025-02-15T11:29:47.000Z</time>
      </trkpt>
      <trkpt lat="-44.669185" lon="169.008531">
        <ele>286.259998</ele>
        <time>2025-02-15T11:29:56.000Z</time>
      </trkpt>
      <trkpt lat="-44.668938" lon="169.008193">
        <ele>286.972407</ele>
        <time>2025-02-15T11:30:00.000Z</time>
      </trkpt>
      <trkpt lat="-44.668753" lon="169.007725">
        <ele>287.762775</ele>
        <time>2025-02-15T11:30:04.000Z</time>
      </trkpt>
      <trkpt lat="-44.668696" lon="169.007216">
        <ele>288.525537</ele>
        <time>2025-02-15T11:30:08.000Z</time>
      </trkpt>
      <trkpt lat="-44.668777" lon="169.00674">
        <ele>289.265606</ele>
        <time>2025-02-15T11:30:12.000Z</time>
      </trkpt>
      <trkpt lat="-44.669302" lon="169.005783">
        <ele>291.064542</ele>
        <time>2025-02-15T11:30:22.000Z</time>
      </trkpt>
      <trkpt lat="-44.66964" lon="169.005096">
        <ele>292.336902</ele>
        <time>2025-02-15T11:30:29.000Z</time>
      </trkpt>
      <trkpt lat="-44.669729" lon="169.004576">
        <ele>292.979118</ele>
        <time>2025-02-15T11:30:33.000Z</time>
      </trkpt>
      <trkpt lat="-44.669748" lon="169.004172">
        <ele>293.192274</ele>
        <time>2025-02-15T11:30:36.000Z</time>
      </trkpt>
      <trkpt lat="-44.669702" lon="169.003748">
        <ele>293.405184</ele>
        <time>2025-02-15T11:30:39.000Z</time>
      </trkpt>
      <trkpt lat="-44.669626" lon="169.003101">
        <ele>293.738616</ele>
        <time>2025-02-15T11:30:44.000Z</time>
      </trkpt>
      <trkpt lat="-44.669099" lon="168.998264">
        <ele>296.00757</ele>
        <time>2025-02-15T11:31:23.000Z</time>
      </trkpt>
      <trkpt lat="-44.669014" lon="168.997571">
        <ele>296.480666</ele>
        <time>2025-02-15T11:31:29.000Z</time>
      </trkpt>
      <trkpt lat="-44.668928" lon="168.997111">
        <ele>296.929032</ele>
        <time>2025-02-15T11:31:33.000Z</time>
      </trkpt>
      <trkpt lat="-44.668879" lon="168.996892">
        <ele>297.300953</ele>
        <time>2025-02-15T11:31:35.000Z</time>
      </trkpt>
      <trkpt lat="-44.66852" lon="168.996267">
        <ele>298.570401</ele>
        <time>2025-02-15T11:31:41.000Z</time>
      </trkpt>
      <trkpt lat="-44.668282" lon="168.996023">
        <ele>299.247384</ele>
        <time>2025-02-15T11:31:44.000Z</time>
      </trkpt>
      <trkpt lat="-44.668138" lon="168.995879">
        <ele>299.651393</ele>
        <time>2025-02-15T11:31:46.000Z</time>
      </trkpt>
      <trkpt lat="-44.667889" lon="168.995713">
        <ele>300.274362</ele>
        <time>2025-02-15T11:31:49.000Z</time>
      </trkpt>
      <trkpt lat="-44.667648" lon="168.995582">
        <ele>300.826006</ele>
        <time>2025-02-15T11:31:52.000Z</time>
      </trkpt>
      <trkpt lat="-44.667486" lon="168.995448">
        <ele>301.132066</ele>
        <time>2025-02-15T11:31:54.000Z</time>
      </trkpt>
      <trkpt lat="-44.666905" lon="168.994433">
        <ele>302.639172</ele>
        <time>2025-02-15T11:32:04.000Z</time>
      </trkpt>
      <trkpt lat="-44.666671" lon="168.994146">
        <ele>303.146741</ele>
        <time>2025-02-15T11:32:07.000Z</time>
      </trkpt>
      <trkpt lat="-44.666287" lon="168.993922">
        <ele>303.600564</ele>
        <time>2025-02-15T11:32:12.000Z</time>
      </trkpt>
      <trkpt lat="-44.666091" lon="168.993741">
        <ele>303.257745</ele>
        <time>2025-02-15T11:32:15.000Z</time>
      </trkpt>
      <trkpt lat="-44.664958" lon="168.991607">
        <ele>300.140465</ele>
        <time>2025-02-15T11:32:36.000Z</time>
      </trkpt>
      <trkpt lat="-44.663773" lon="168.989239">
        <ele>296.510778</ele>
        <time>2025-02-15T11:32:59.000Z</time>
      </trkpt>
      <trkpt lat="-44.663624" lon="168.988945">
        <ele>296.400322</ele>
        <time>2025-02-15T11:33:02.000Z</time>
      </trkpt>
      <trkpt lat="-44.663486" lon="168.988797">
        <ele>296.326622</ele>
        <time>2025-02-15T11:33:04.000Z</time>
      </trkpt>
      <trkpt lat="-44.663489" lon="168.98879">
        <ele>296.326094</ele>
        <time>2025-02-15T11:33:04.000Z</time>
      </trkpt>
      <trkpt lat="-44.663499" lon="168.988798">
        <ele>296.325566</ele>
        <time>2025-02-15T11:33:04.000Z</time>
      </trkpt>
      <trkpt lat="-44.663625" lon="168.988949">
        <ele>296.251855</ele>
        <time>2025-02-15T11:33:06.000Z</time>
      </trkpt>
      <trkpt lat="-44.663788" lon="168.989223">
        <ele>296.141398</ele>
        <time>2025-02-15T11:33:09.000Z</time>
      </trkpt>
      <trkpt lat="-44.66496" lon="168.991606">
        <ele>300.197034</ele>
        <time>2025-02-15T11:33:32.000Z</time>
      </trkpt>
      <trkpt lat="-44.666079" lon="168.993742">
        <ele>303.484769</ele>
        <time>2025-02-15T11:33:53.000Z</time>
      </trkpt>
      <trkpt lat="-44.666284" lon="168.993923">
        <ele>303.242129</ele>
        <time>2025-02-15T11:33:56.000Z</time>
      </trkpt>
      <trkpt lat="-44.666666" lon="168.994152">
        <ele>302.812354</ele>
        <time>2025-02-15T11:34:01.000Z</time>
      </trkpt>
      <trkpt lat="-44.666912" lon="168.994417">
        <ele>302.490284</ele>
        <time>2025-02-15T11:34:04.000Z</time>
      </trkpt>
      <trkpt lat="-44.667486" lon="168.995443">
        <ele>301.304446</ele>
        <time>2025-02-15T11:34:14.000Z</time>
      </trkpt>
      <trkpt lat="-44.66765" lon="168.995586">
        <ele>300.855655</ele>
        <time>2025-02-15T11:34:16.000Z</time>
      </trkpt>
      <trkpt lat="-44.667891" lon="168.995707">
        <ele>300.259137</ele>
        <time>2025-02-15T11:34:19.000Z</time>
      </trkpt>
      <trkpt lat="-44.668139" lon="168.995879">
        <ele>299.603319</ele>
        <time>2025-02-15T11:34:22.000Z</time>
      </trkpt>
      <trkpt lat="-44.668278" lon="168.996022">
        <ele>299.178033</ele>
        <time>2025-02-15T11:34:24.000Z</time>
      </trkpt>
      <trkpt lat="-44.668523" lon="168.996274">
        <ele>298.465365</ele>
        <time>2025-02-15T11:34:27.000Z</time>
      </trkpt>
      <trkpt lat="-44.668867" lon="168.996888">
        <ele>297.273936</ele>
        <time>2025-02-15T11:34:33.000Z</time>
      </trkpt>
      <trkpt lat="-44.668943" lon="168.997109">
        <ele>297.071225</ele>
        <time>2025-02-15T11:34:35.000Z</time>
      </trkpt>
      <trkpt lat="-44.669016" lon="168.997581">
        <ele>296.643862</ele>
        <time>2025-02-15T11:34:39.000Z</time>
      </trkpt>
      <trkpt lat="-44.669097" lon="168.998261">
        <ele>296.028207</ele>
        <time>2025-02-15T11:34:44.000Z</time>
      </trkpt>
      <trkpt lat="-44.669628" lon="169.003092">
        <ele>293.77801</ele>
        <time>2025-02-15T11:35:23.000Z</time>
      </trkpt>
      <trkpt lat="-44.669702" lon="169.003758">
        <ele>293.507511</ele>
        <time>2025-02-15T11:35:28.000Z</time>
      </trkpt>
      <trkpt lat="-44.669742" lon="169.004154">
        <ele>293.334785</ele>
        <time>2025-02-15T11:35:31.000Z</time>
      </trkpt>
      <trkpt lat="-44.669737" lon="169.004574">
        <ele>292.820507</ele>
        <time>2025-02-15T11:35:34.000Z</time>
      </trkpt>
      <trkpt lat="-44.669639" lon="169.00508">
        <ele>292.155611</ele>
        <time>2025-02-15T11:35:38.000Z</time>
      </trkpt>
      <trkpt lat="-44.669303" lon="169.005781">
        <ele>291.073705</ele>
        <time>2025-02-15T11:35:45.000Z</time>
      </trkpt>
      <trkpt lat="-44.668765" lon="169.006727">
        <ele>289.378168</ele>
        <time>2025-02-15T11:35:55.000Z</time>
      </trkpt>
      <trkpt lat="-44.668705" lon="169.007227">
        <ele>288.554481</ele>
        <time>2025-02-15T11:35:59.000Z</time>
      </trkpt>
      <trkpt lat="-44.668765" lon="169.007733">
        <ele>287.703546</ele>
        <time>2025-02-15T11:36:03.000Z</time>
      </trkpt>
      <trkpt lat="-44.668945" lon="169.008208">
        <ele>286.821829</ele>
        <time>2025-02-15T11:36:07.000Z</time>
      </trkpt>
      <trkpt lat="-44.669181" lon="169.008529">
        <ele>286.027078</ele>
        <time>2025-02-15T11:36:11.000Z</time>
      </trkpt>
      <trkpt lat="-44.670001" lon="169.00894">
        <ele>285.383184</ele>
        <time>2025-02-15T11:36:21.000Z</time>
      </trkpt>
      <trkpt lat="-44.670808" lon="169.009261">
        <ele>284.814757</ele>
        <time>2025-02-15T11:36:30.000Z</time>
      </trkpt>
      <trkpt lat="-44.671636" lon="169.009604">
        <ele>285.0992</ele>
        <time>2025-02-15T11:36:40.000Z</time>
      </trkpt>
      <trkpt lat="-44.67203" lon="169.010094">
        <ele>285.376861</ele>
        <time>2025-02-15T11:36:46.000Z</time>
      </trkpt>
      <trkpt lat="-44.672397" lon="169.010664">
        <ele>285.663953</ele>
        <time>2025-02-15T11:36:52.000Z</time>
      </trkpt>
      <trkpt lat="-44.674138" lon="169.013601">
        <ele>286.729777</ele>
        <time>2025-02-15T11:37:22.000Z</time>
      </trkpt>
      <trkpt lat="-44.674349" lon="169.014011">
        <ele>286.808846</ele>
        <time>2025-02-15T11:37:26.000Z</time>
      </trkpt>
      <trkpt lat="-44.674453" lon="169.014363">
        <ele>286.870221</ele>
        <time>2025-02-15T11:37:29.000Z</time>
      </trkpt>
      <trkpt lat="-44.674523" lon="169.014633">
        <ele>286.912279</ele>
        <time>2025-02-15T11:37:31.000Z</time>
      </trkpt>
      <trkpt lat="-44.674626" lon="169.016227">
        <ele>286.65728</ele>
        <time>2025-02-15T11:37:44.000Z</time>
      </trkpt>
      <trkpt lat="-44.674746" lon="169.018559">
        <ele>286.428855</ele>
        <time>2025-02-15T11:38:02.000Z</time>
      </trkpt>
      <trkpt lat="-44.674749" lon="169.018838">
        <ele>286.416147</ele>
        <time>2025-02-15T11:38:04.000Z</time>
      </trkpt>
      <trkpt lat="-44.674792" lon="169.019063">
        <ele>286.405907</ele>
        <time>2025-02-15T11:38:06.000Z</time>
      </trkpt>
      <trkpt lat="-44.675167" lon="169.021091">
        <ele>287.210933</ele>
        <time>2025-02-15T11:38:23.000Z</time>
      </trkpt>
      <trkpt lat="-44.67536" lon="169.022204">
        <ele>287.906276</ele>
        <time>2025-02-15T11:38:32.000Z</time>
      </trkpt>
      <trkpt lat="-44.675358" lon="169.022744">
        <ele>288.697468</ele>
        <time>2025-02-15T11:38:36.000Z</time>
      </trkpt>
      <trkpt lat="-44.675278" lon="169.02359">
        <ele>289.96179</ele>
        <time>2025-02-15T11:38:43.000Z</time>
      </trkpt>
      <trkpt lat="-44.675173" lon="169.024228">
        <ele>290.919847</ele>
        <time>2025-02-15T11:38:48.000Z</time>
      </trkpt>
      <trkpt lat="-44.675006" lon="169.024771">
        <ele>291.838803</ele>
        <time>2025-02-15T11:38:53.000Z</time>
      </trkpt>
      <trkpt lat="-44.674651" lon="169.025371">
        <ele>293.328941</ele>
        <time>2025-02-15T11:38:59.000Z</time>
      </trkpt>
      <trkpt lat="-44.674325" lon="169.025715">
        <ele>294.381625</ele>
        <time>2025-02-15T11:39:04.000Z</time>
      </trkpt>
      <trkpt lat="-44.674132" lon="169.026159">
        <ele>295.362707</ele>
        <time>2025-02-15T11:39:08.000Z</time>
      </trkpt>
      <trkpt lat="-44.674019" lon="169.026718">
        <ele>296.439843</ele>
        <time>2025-02-15T11:39:13.000Z</time>
      </trkpt>
      <trkpt lat="-44.673894" lon="169.027931">
        <ele>298.395952</ele>
        <time>2025-02-15T11:39:23.000Z</time>
      </trkpt>
      <trkpt lat="-44.673853" lon="169.028224">
        <ele>298.870882</ele>
        <time>2025-02-15T11:39:25.000Z</time>
      </trkpt>
      <trkpt lat="-44.673734" lon="169.028501">
        <ele>299.395662</ele>
        <time>2025-02-15T11:39:28.000Z</time>
      </trkpt>
      <trkpt lat="-44.67331" lon="169.029108">
        <ele>300.104033</ele>
        <time>2025-02-15T11:39:35.000Z</time>
      </trkpt>
      <trkpt lat="-44.672972" lon="169.029863">
        <ele>299.119183</ele>
        <time>2025-02-15T11:39:42.000Z</time>
      </trkpt>
      <trkpt lat="-44.672397" lon="169.030447">
        <ele>298.032313</ele>
        <time>2025-02-15T11:39:50.000Z</time>
      </trkpt>
      <trkpt lat="-44.670774" lon="169.032456">
        <ele>291.642772</ele>
        <time>2025-02-15T11:40:14.000Z</time>
      </trkpt>
      <trkpt lat="-44.670077" lon="169.033086">
        <ele>290.917011</ele>
        <time>2025-02-15T11:40:23.000Z</time>
      </trkpt>
      <trkpt lat="-44.668827" lon="169.033956">
        <ele>290.667858</ele>
        <time>2025-02-15T11:40:39.000Z</time>
      </trkpt>
      <trkpt lat="-44.668286" lon="169.034563">
        <ele>291.422116</ele>
        <time>2025-02-15T11:40:47.000Z</time>
      </trkpt>
      <trkpt lat="-44.666647" lon="169.036725">
        <ele>294.191308</ele>
        <time>2025-02-15T11:41:12.000Z</time>
      </trkpt>
      <trkpt lat="-44.666506" lon="169.036939">
        <ele>294.468593</ele>
        <time>2025-02-15T11:41:14.000Z</time>
      </trkpt>
      <trkpt lat="-44.666022" lon="169.038052">
        <ele>295.935342</ele>
        <time>2025-02-15T11:41:24.000Z</time>
      </trkpt>
      <trkpt lat="-44.665829" lon="169.038403">
        <ele>296.452925</ele>
        <time>2025-02-15T11:41:28.000Z</time>
      </trkpt>
      <trkpt lat="-44.664726" lon="169.039889">
        <ele>299.02668</ele>
        <time>2025-02-15T11:41:45.000Z</time>
      </trkpt>
      <trkpt lat="-44.664335" lon="169.040537">
        <ele>300.099741</ele>
        <time>2025-02-15T11:41:52.000Z</time>
      </trkpt>
      <trkpt lat="-44.664209" lon="169.040752">
        <ele>300.444008</ele>
        <time>2025-02-15T11:41:54.000Z</time>
      </trkpt>
      <trkpt lat="-44.664098" lon="169.04119">
        <ele>301.110386</ele>
        <time>2025-02-15T11:41:58.000Z</time>
      </trkpt>
      <trkpt lat="-44.66403" lon="169.041541">
        <ele>301.61908</ele>
        <time>2025-02-15T11:42:01.000Z</time>
      </trkpt>
      <trkpt lat="-44.664059" lon="169.042005">
        <ele>302.251001</ele>
        <time>2025-02-15T11:42:05.000Z</time>
      </trkpt>
      <trkpt lat="-44.66414" lon="169.042422">
        <ele>302.854957</ele>
        <time>2025-02-15T11:42:08.000Z</time>
      </trkpt>
      <trkpt lat="-44.664705" lon="169.043707">
        <ele>304.228725</ele>
        <time>2025-02-15T11:42:20.000Z</time>
      </trkpt>
      <trkpt lat="-44.664817" lon="169.044051">
        <ele>304.370182</ele>
        <time>2025-02-15T11:42:23.000Z</time>
      </trkpt>
      <trkpt lat="-44.664865" lon="169.044369">
        <ele>304.500535</ele>
        <time>2025-02-15T11:42:26.000Z</time>
      </trkpt>
      <trkpt lat="-44.664821" lon="169.044796">
        <ele>304.671084</ele>
        <time>2025-02-15T11:42:29.000Z</time>
      </trkpt>
      <trkpt lat="-44.664637" lon="169.045686">
        <ele>304.784268</ele>
        <time>2025-02-15T11:42:36.000Z</time>
      </trkpt>
      <trkpt lat="-44.664433" lon="169.04615">
        <ele>304.516895</ele>
        <time>2025-02-15T11:42:40.000Z</time>
      </trkpt>
      <trkpt lat="-44.664256" lon="169.046578">
        <ele>304.272784</ele>
        <time>2025-02-15T11:42:44.000Z</time>
      </trkpt>
      <trkpt lat="-44.663615" lon="169.047607">
        <ele>303.864349</ele>
        <time>2025-02-15T11:42:55.000Z</time>
      </trkpt>
      <trkpt lat="-44.663323" lon="169.048222">
        <ele>304.793094</ele>
        <time>2025-02-15T11:43:01.000Z</time>
      </trkpt>
      <trkpt lat="-44.663135" lon="169.048887">
        <ele>305.693011</ele>
        <time>2025-02-15T11:43:07.000Z</time>
      </trkpt>
      <trkpt lat="-44.662618" lon="169.052598">
        <ele>313.411791</ele>
        <time>2025-02-15T11:43:37.000Z</time>
      </trkpt>
      <trkpt lat="-44.6626" lon="169.052949">
        <ele>313.94294</ele>
        <time>2025-02-15T11:43:40.000Z</time>
      </trkpt>
      <trkpt lat="-44.662639" lon="169.053254">
        <ele>314.405628</ele>
        <time>2025-02-15T11:43:42.000Z</time>
      </trkpt>
      <trkpt lat="-44.662872" lon="169.054425">
        <ele>316.195804</ele>
        <time>2025-02-15T11:43:52.000Z</time>
      </trkpt>
      <trkpt lat="-44.662892" lon="169.054833">
        <ele>316.437664</ele>
        <time>2025-02-15T11:43:55.000Z</time>
      </trkpt>
      <trkpt lat="-44.662778" lon="169.056187">
        <ele>313.493428</ele>
        <time>2025-02-15T11:44:06.000Z</time>
      </trkpt>
      <trkpt lat="-44.662786" lon="169.056853">
        <ele>312.055393</ele>
        <time>2025-02-15T11:44:11.000Z</time>
      </trkpt>
      <trkpt lat="-44.662939" lon="169.057571">
        <ele>311.399265</ele>
        <time>2025-02-15T11:44:17.000Z</time>
      </trkpt>
      <trkpt lat="-44.6636" lon="169.06">
        <ele>314.066645</ele>
        <time>2025-02-15T11:44:38.000Z</time>
      </trkpt>
      <trkpt lat="-44.663878" lon="169.060825">
        <ele>317.046672</ele>
        <time>2025-02-15T11:44:45.000Z</time>
      </trkpt>
      <trkpt lat="-44.66425" lon="169.061672">
        <ele>320.290469</ele>
        <time>2025-02-15T11:44:53.000Z</time>
      </trkpt>
      <trkpt lat="-44.664641" lon="169.062431">
        <ele>322.590401</ele>
        <time>2025-02-15T11:45:00.000Z</time>
      </trkpt>
      <trkpt lat="-44.665821" lon="169.064333">
        <ele>327.186368</ele>
        <time>2025-02-15T11:45:20.000Z</time>
      </trkpt>
      <trkpt lat="-44.666461" lon="169.065192">
        <ele>328.160112</ele>
        <time>2025-02-15T11:45:30.000Z</time>
      </trkpt>
      <trkpt lat="-44.668064" lon="169.066949">
        <ele>328.747613</ele>
        <time>2025-02-15T11:45:53.000Z</time>
      </trkpt>
      <trkpt lat="-44.668277" lon="169.067235">
        <ele>328.673674</ele>
        <time>2025-02-15T11:45:56.000Z</time>
      </trkpt>
      <trkpt lat="-44.668893" lon="169.068412">
        <ele>327.972357</ele>
        <time>2025-02-15T11:46:08.000Z</time>
      </trkpt>
      <trkpt lat="-44.669346" lon="169.069112">
        <ele>327.573889</ele>
        <time>2025-02-15T11:46:15.000Z</time>
      </trkpt>
      <trkpt lat="-44.670608" lon="169.070874">
        <ele>328.013574</ele>
        <time>2025-02-15T11:46:35.000Z</time>
      </trkpt>
      <trkpt lat="-44.670828" lon="169.071142">
        <ele>327.991286</ele>
        <time>2025-02-15T11:46:38.000Z</time>
      </trkpt>
      <trkpt lat="-44.671135" lon="169.07136">
        <ele>327.966437</ele>
        <time>2025-02-15T11:46:42.000Z</time>
      </trkpt>
      <trkpt lat="-44.672744" lon="169.071881">
        <ele>328.097581</ele>
        <time>2025-02-15T11:47:00.000Z</time>
      </trkpt>
      <trkpt lat="-44.673337" lon="169.072073">
        <ele>328.346026</ele>
        <time>2025-02-15T11:47:07.000Z</time>
      </trkpt>
      <trkpt lat="-44.673959" lon="169.072269">
        <ele>328.616658</ele>
        <time>2025-02-15T11:47:14.000Z</time>
      </trkpt>
      <trkpt lat="-44.674346" lon="169.072498">
        <ele>329.111267</ele>
        <time>2025-02-15T11:47:19.000Z</time>
      </trkpt>
      <trkpt lat="-44.675109" lon="169.07328">
        <ele>330.316772</ele>
        <time>2025-02-15T11:47:29.000Z</time>
      </trkpt>
      <trkpt lat="-44.676708" lon="169.075172">
        <ele>333.089993</ele>
        <time>2025-02-15T11:47:52.000Z</time>
      </trkpt>
      <trkpt lat="-44.677154" lon="169.075628">
        <ele>334.488798</ele>
        <time>2025-02-15T11:47:58.000Z</time>
      </trkpt>
      <trkpt lat="-44.677288" lon="169.075753">
        <ele>334.955748</ele>
        <time>2025-02-15T11:48:00.000Z</time>
      </trkpt>
      <trkpt lat="-44.680776" lon="169.078887">
        <ele>346.475044</ele>
        <time>2025-02-15T11:48:46.000Z</time>
      </trkpt>
      <trkpt lat="-44.683019" lon="169.08079">
        <ele>347.00282</ele>
        <time>2025-02-15T11:49:15.000Z</time>
      </trkpt>
      <trkpt lat="-44.685481" lon="169.082528">
        <ele>340.102534</ele>
        <time>2025-02-15T11:49:46.000Z</time>
      </trkpt>
      <trkpt lat="-44.686502" lon="169.08363">
        <ele>335.261593</ele>
        <time>2025-02-15T11:50:00.000Z</time>
      </trkpt>
      <trkpt lat="-44.687502" lon="169.085175">
        <ele>328.71573</ele>
        <time>2025-02-15T11:50:17.000Z</time>
      </trkpt>
      <trkpt lat="-44.688448" lon="169.086696">
        <ele>323.457063</ele>
        <time>2025-02-15T11:50:33.000Z</time>
      </trkpt>
      <trkpt lat="-44.690491" lon="169.090458">
        <ele>318.979092</ele>
        <time>2025-02-15T11:51:10.000Z</time>
      </trkpt>
      <trkpt lat="-44.691648" lon="169.09263">
        <ele>319.073368</ele>
        <time>2025-02-15T11:51:31.000Z</time>
      </trkpt>
      <trkpt lat="-44.692167" lon="169.093778">
        <ele>320.387881</ele>
        <time>2025-02-15T11:51:42.000Z</time>
      </trkpt>
      <trkpt lat="-44.692205" lon="169.093883">
        <ele>320.519609</ele>
        <time>2025-02-15T11:51:43.000Z</time>
      </trkpt>
      <trkpt lat="-44.692496" lon="169.094601">
        <ele>321.518996</ele>
        <time>2025-02-15T11:51:50.000Z</time>
      </trkpt>
      <trkpt lat="-44.692887" lon="169.095682">
        <ele>323.287422</ele>
        <time>2025-02-15T11:52:00.000Z</time>
      </trkpt>
      <trkpt lat="-44.69302" lon="169.095945">
        <ele>323.839915</ele>
        <time>2025-02-15T11:52:03.000Z</time>
      </trkpt>
      <trkpt lat="-44.693524" lon="169.096606">
        <ele>325.486311</ele>
        <time>2025-02-15T11:52:11.000Z</time>
      </trkpt>
      <trkpt lat="-44.693751" lon="169.096839">
        <ele>326.109984</ele>
        <time>2025-02-15T11:52:14.000Z</time>
      </trkpt>
      <trkpt lat="-44.694134" lon="169.09715">
        <ele>326.707158</ele>
        <time>2025-02-15T11:52:19.000Z</time>
      </trkpt>
      <trkpt lat="-44.694236" lon="169.097213">
        <ele>326.8135</ele>
        <time>2025-02-15T11:52:20.000Z</time>
      </trkpt>
      <trkpt lat="-44.697128" lon="169.09876">
        <ele>328.447959</ele>
        <time>2025-02-15T11:52:54.000Z</time>
      </trkpt>
      <trkpt lat="-44.697529" lon="169.098998">
        <ele>328.628835</ele>
        <time>2025-02-15T11:52:59.000Z</time>
      </trkpt>
      <trkpt lat="-44.69777" lon="169.099217">
        <ele>328.760373</ele>
        <time>2025-02-15T11:53:02.000Z</time>
      </trkpt>
      <trkpt lat="-44.697885" lon="169.099383">
        <ele>328.841028</ele>
        <time>2025-02-15T11:53:04.000Z</time>
      </trkpt>
      <trkpt lat="-44.698119" lon="169.099771">
        <ele>329.002184</ele>
        <time>2025-02-15T11:53:08.000Z</time>
      </trkpt>
      <trkpt lat="-44.698542" lon="169.100704">
        <ele>329.502777</ele>
        <time>2025-02-15T11:53:17.000Z</time>
      </trkpt>
      <trkpt lat="-44.698827" lon="169.101346">
        <ele>330.192895</ele>
        <time>2025-02-15T11:53:23.000Z</time>
      </trkpt>
      <trkpt lat="-44.698934" lon="169.101556">
        <ele>330.436914</ele>
        <time>2025-02-15T11:53:25.000Z</time>
      </trkpt>
      <trkpt lat="-44.69934" lon="169.102523">
        <ele>331.463599</ele>
        <time>2025-02-15T11:53:34.000Z</time>
      </trkpt>
      <trkpt lat="-44.699714" lon="169.103476">
        <ele>331.228165</ele>
        <time>2025-02-15T11:53:43.000Z</time>
      </trkpt>
      <trkpt lat="-44.700221" lon="169.104797">
        <ele>330.556721</ele>
        <time>2025-02-15T11:53:55.000Z</time>
      </trkpt>
      <trkpt lat="-44.700574" lon="169.105772">
        <ele>328.48709</ele>
        <time>2025-02-15T11:54:04.000Z</time>
      </trkpt>
      <trkpt lat="-44.700835" lon="169.106504">
        <ele>326.760404</ele>
        <time>2025-02-15T11:54:10.000Z</time>
      </trkpt>
      <trkpt lat="-44.700899" lon="169.106771">
        <ele>326.192021</ele>
        <time>2025-02-15T11:54:12.000Z</time>
      </trkpt>
      <trkpt lat="-44.70096" lon="169.106989">
        <ele>325.702167</ele>
        <time>2025-02-15T11:54:14.000Z</time>
      </trkpt>
      <trkpt lat="-44.701022" lon="169.107558">
        <ele>324.574422</ele>
        <time>2025-02-15T11:54:19.000Z</time>
      </trkpt>
      <trkpt lat="-44.701082" lon="169.108302">
        <ele>323.167954</ele>
        <time>2025-02-15T11:54:25.000Z</time>
      </trkpt>
      <trkpt lat="-44.701143" lon="169.108925">
        <ele>322.004846</ele>
        <time>2025-02-15T11:54:30.000Z</time>
      </trkpt>
      <trkpt lat="-44.701559" lon="169.112913">
        <ele>314.094757</ele>
        <time>2025-02-15T11:55:02.000Z</time>
      </trkpt>
      <trkpt lat="-44.701532" lon="169.113145">
        <ele>313.51294</ele>
        <time>2025-02-15T11:55:04.000Z</time>
      </trkpt>
      <trkpt lat="-44.701469" lon="169.11341">
        <ele>312.815092</ele>
        <time>2025-02-15T11:55:06.000Z</time>
      </trkpt>
      <trkpt lat="-44.70106" lon="169.114394">
        <ele>310.004651</ele>
        <time>2025-02-15T11:55:15.000Z</time>
      </trkpt>
      <trkpt lat="-44.701014" lon="169.114384">
        <ele>309.873759</ele>
        <time>2025-02-15T11:55:16.000Z</time>
      </trkpt>
      <trkpt lat="-44.700973" lon="169.114435">
        <ele>309.681183</ele>
        <time>2025-02-15T11:55:17.000Z</time>
      </trkpt>
      <trkpt lat="-44.700972" lon="169.11452">
        <ele>309.431072</ele>
        <time>2025-02-15T11:55:18.000Z</time>
      </trkpt>
      <trkpt lat="-44.701013" lon="169.114544">
        <ele>309.238816</ele>
        <time>2025-02-15T11:55:18.000Z</time>
      </trkpt>
      <trkpt lat="-44.70098" lon="169.11467">
        <ele>308.821082</ele>
        <time>2025-02-15T11:55:19.000Z</time>
      </trkpt>
      <trkpt lat="-44.700889" lon="169.115963">
        <ele>304.486255</ele>
        <time>2025-02-15T11:55:29.000Z</time>
      </trkpt>
      <trkpt lat="-44.700851" lon="169.116319">
        <ele>303.281022</ele>
        <time>2025-02-15T11:55:32.000Z</time>
      </trkpt>
      <trkpt lat="-44.700703" lon="169.117752">
        <ele>298.295822</ele>
        <time>2025-02-15T11:55:43.000Z</time>
      </trkpt>
      <trkpt lat="-44.700623" lon="169.118453">
        <ele>295.790918</ele>
        <time>2025-02-15T11:55:49.000Z</time>
      </trkpt>
      <trkpt lat="-44.700488" lon="169.119598">
        <ele>291.902282</ele>
        <time>2025-02-15T11:55:58.000Z</time>
      </trkpt>
      <trkpt lat="-44.700252" lon="169.121254">
        <ele>288.113395</ele>
        <time>2025-02-15T11:56:11.000Z</time>
      </trkpt>
      <trkpt lat="-44.699834" lon="169.12289">
        <ele>285.334217</ele>
        <time>2025-02-15T11:56:25.000Z</time>
      </trkpt>
      <trkpt lat="-44.699756" lon="169.12327">
        <ele>284.89094</ele>
        <time>2025-02-15T11:56:28.000Z</time>
      </trkpt>
      <trkpt lat="-44.699728" lon="169.123548">
        <ele>284.564988</ele>
        <time>2025-02-15T11:56:30.000Z</time>
      </trkpt>
      <trkpt lat="-44.699535" lon="169.124985">
        <ele>283.226707</ele>
        <time>2025-02-15T11:56:42.000Z</time>
      </trkpt>
      <trkpt lat="-44.699312" lon="169.125862">
        <ele>282.682259</ele>
        <time>2025-02-15T11:56:49.000Z</time>
      </trkpt>
      <trkpt lat="-44.698904" lon="169.127131">
        <ele>282.001405</ele>
        <time>2025-02-15T11:57:00.000Z</time>
      </trkpt>
      <trkpt lat="-44.698824" lon="169.127379">
        <ele>281.922923</ele>
        <time>2025-02-15T11:57:02.000Z</time>
      </trkpt>
      <trkpt lat="-44.698607" lon="169.127988">
        <ele>281.731065</ele>
        <time>2025-02-15T11:57:07.000Z</time>
      </trkpt>
      <trkpt lat="-44.698146" lon="169.129059">
        <ele>281.400257445</ele>
        <time>2025-02-15T11:57:17.000Z</time>
      </trkpt>
      <trkpt lat="-44.6977" lon="169.129974">
        <ele>281.107123535</ele>
        <time>2025-02-15T11:57:26.000Z</time>
      </trkpt>
      <trkpt lat="-44.696809" lon="169.131616">
        <ele>280.56131995</ele>
        <time>2025-02-15T11:57:42.000Z</time>
      </trkpt>
      <trkpt lat="-44.696661" lon="169.131861">
        <ele>280.476368959</ele>
        <time>2025-02-15T11:57:45.000Z</time>
      </trkpt>
      <trkpt lat="-44.696659" lon="169.13186">
        <ele>280.475580004</ele>
        <time>2025-02-15T11:57:45.000Z</time>
      </trkpt>
      <trkpt lat="-44.696659" lon="169.131864">
        <ele>280.47452313</ele>
        <time>2025-02-15T11:57:45.000Z</time>
      </trkpt>
      <trkpt lat="-44.696645" lon="169.131877">
        <ele>280.468287951</ele>
        <time>2025-02-15T11:57:45.000Z</time>
      </trkpt>
    </trkseg>
  </trk>
</gpx>

<!--
Performance optimized by W3 Total Cache. Learn more: https://www.boldgrid.com/w3-total-cache/?utm_source=w3tc&utm_medium=footer_comment&utm_campaign=free_plugin

Page Caching using Disk: Enhanced{w3tc_pagecache_reject_reason} 

Served from: www.aquabike.world @ 2026-05-10 10:54:28 by W3 Total Cache
-->